<?xml version="1.0" encoding="utf-8"?>
<gpx xmlns:tc2="http://www.garmin.com/xmlschemas/TrainingCenterDatabase/v2" xmlns:xsi="http://www.w3.org/2001/XMLSchema-instance" xmlns:tp1="http://www.garmin.com/xmlschemas/TrackPointExtension/v1" xmlns="http://www.topografix.com/GPX/1/1" version="1.1" creator="TC2 to GPX11 XSLT stylesheet" xsi:schemaLocation="http://www.topografix.com/GPX/1/1 http://www.topografix.com/GPX/1/1/gpx.xsd http://www.garmin.com/xmlschemas/TrackPointExtension/v1 http://www.garmin.com/xmlschemas/TrackPointExtensionv1.xsd">
<trk>
<name>93_heidesee_ver</name>
<trkseg>
<trkpt lat="51.2718264" lon="6.3724674">
<ele>0.0000000</ele>
<time>2007-09-12T21:42:45Z</time>
</trkpt>
<trkpt lat="51.2713324" lon="6.3712468">
<ele>0.0000000</ele>
<time>2007-09-12T21:43:01Z</time>
</trkpt>
<trkpt lat="51.2708832" lon="6.3713186">
<ele>0.0000000</ele>
<time>2007-09-12T21:43:09Z</time>
</trkpt>
<trkpt lat="51.2707500" lon="6.3713837">
<ele>50.6000000</ele>
<time>2007-09-12T21:43:11Z</time>
</trkpt>
<trkpt lat="51.2701450" lon="6.3717055">
<ele>49.6000000</ele>
<time>2007-09-12T21:43:22Z</time>
</trkpt>
<trkpt lat="51.2695000" lon="6.3720703">
<ele>51.1000000</ele>
<time>2007-09-12T21:43:34Z</time>
</trkpt>
<trkpt lat="51.2694400" lon="6.3721130">
<ele>51.1000000</ele>
<time>2007-09-12T21:43:35Z</time>
</trkpt>
<trkpt lat="51.2692680" lon="6.3716197">
<ele>51.6000000</ele>
<time>2007-09-12T21:43:41Z</time>
</trkpt>
<trkpt lat="51.2687530" lon="6.3701177">
<ele>49.6000000</ele>
<time>2007-09-12T21:44:00Z</time>
</trkpt>
<trkpt lat="51.2684500" lon="6.3691950">
<ele>50.1000000</ele>
<time>2007-09-12T21:44:11Z</time>
</trkpt>
<trkpt lat="51.2683000" lon="6.3683367">
<ele>51.1000000</ele>
<time>2007-09-12T21:44:21Z</time>
</trkpt>
<trkpt lat="51.2680660" lon="6.3673710">
<ele>51.6000000</ele>
<time>2007-09-12T21:44:32Z</time>
</trkpt>
<trkpt lat="51.2678700" lon="6.3667703">
<ele>54.5000000</ele>
<time>2007-09-12T21:44:40Z</time>
</trkpt>
<trkpt lat="51.2677420" lon="6.3660620">
<ele>54.5000000</ele>
<time>2007-09-12T21:44:48Z</time>
</trkpt>
<trkpt lat="51.2675500" lon="6.3651395">
<ele>54.9000000</ele>
<time>2007-09-12T21:44:58Z</time>
</trkpt>
<trkpt lat="51.2674640" lon="6.3644743">
<ele>55.9000000</ele>
<time>2007-09-12T21:45:06Z</time>
</trkpt>
<trkpt lat="51.2676770" lon="6.3637447">
<ele>55.9000000</ele>
<time>2007-09-12T21:45:14Z</time>
</trkpt>
<trkpt lat="51.2684500" lon="6.3619423">
<ele>56.4000000</ele>
<time>2007-09-12T21:45:38Z</time>
</trkpt>
<trkpt lat="51.2686420" lon="6.3614273">
<ele>56.9000000</ele>
<time>2007-09-12T21:45:45Z</time>
</trkpt>
<trkpt lat="51.2691400" lon="6.3610196">
<ele>57.3000000</ele>
<time>2007-09-12T21:45:55Z</time>
</trkpt>
<trkpt lat="51.2692450" lon="6.3611700">
<ele>57.3000000</ele>
<time>2007-09-12T21:45:57Z</time>
</trkpt>
<trkpt lat="51.2697600" lon="6.3619423">
<ele>57.3000000</ele>
<time>2007-09-12T21:46:09Z</time>
</trkpt>
<trkpt lat="51.2699550" lon="6.3622856">
<ele>56.4000000</ele>
<time>2007-09-12T21:46:14Z</time>
</trkpt>
<trkpt lat="51.2709600" lon="6.3638090">
<ele>55.9000000</ele>
<time>2007-09-12T21:46:38Z</time>
</trkpt>
<trkpt lat="51.2715400" lon="6.3646245">
<ele>55.9000000</ele>
<time>2007-09-12T21:46:52Z</time>
</trkpt>
<trkpt lat="51.2715840" lon="6.3643670">
<ele>55.9000000</ele>
<time>2007-09-12T21:46:55Z</time>
</trkpt>
<trkpt lat="51.2716900" lon="6.3642597">
<ele>55.9000000</ele>
<time>2007-09-12T21:46:57Z</time>
</trkpt>
<trkpt lat="51.2722700" lon="6.3637447">
<ele>55.9000000</ele>
<time>2007-09-12T21:47:08Z</time>
</trkpt>
<trkpt lat="51.2729570" lon="6.3636374">
<ele>55.9000000</ele>
<time>2007-09-12T21:47:21Z</time>
</trkpt>
<trkpt lat="51.2734300" lon="6.3634443">
<ele>55.9000000</ele>
<time>2007-09-12T21:47:29Z</time>
</trkpt>
<trkpt lat="51.2736200" lon="6.3632510">
<ele>58.3000000</ele>
<time>2007-09-12T21:47:33Z</time>
</trkpt>
<trkpt lat="51.2737300" lon="6.3631010">
<ele>60.7000000</ele>
<time>2007-09-12T21:47:35Z</time>
</trkpt>
<trkpt lat="51.2738150" lon="6.3631440">
<ele>69.8000000</ele>
<time>2007-09-12T21:47:37Z</time>
</trkpt>
<trkpt lat="51.2742230" lon="6.3629723">
<ele>69.8000000</ele>
<time>2007-09-12T21:47:44Z</time>
</trkpt>
<trkpt lat="51.2753830" lon="6.3624144">
<ele>69.4000000</ele>
<time>2007-09-12T21:48:05Z</time>
</trkpt>
<trkpt lat="51.2758520" lon="6.3617490">
<ele>69.4000000</ele>
<time>2007-09-12T21:48:16Z</time>
</trkpt>
<trkpt lat="51.2762400" lon="6.3608910">
<ele>69.4000000</ele>
<time>2007-09-12T21:48:28Z</time>
</trkpt>
<trkpt lat="51.2763250" lon="6.3607407">
<ele>69.4000000</ele>
<time>2007-09-12T21:48:30Z</time>
</trkpt>
<trkpt lat="51.2765430" lon="6.3605046">
<ele>69.4000000</ele>
<time>2007-09-12T21:48:35Z</time>
</trkpt>
<trkpt lat="51.2768000" lon="6.3593890">
<ele>68.9000000</ele>
<time>2007-09-12T21:48:48Z</time>
</trkpt>
<trkpt lat="51.2770770" lon="6.3594960">
<ele>68.9000000</ele>
<time>2007-09-12T21:48:53Z</time>
</trkpt>
<trkpt lat="51.2778930" lon="6.3585950">
<ele>68.9000000</ele>
<time>2007-09-12T21:49:10Z</time>
</trkpt>
<trkpt lat="51.2790530" lon="6.3579940">
<ele>70.8000000</ele>
<time>2007-09-12T21:49:31Z</time>
</trkpt>
<trkpt lat="51.2792850" lon="6.3574576">
<ele>70.8000000</ele>
<time>2007-09-12T21:49:38Z</time>
</trkpt>
<trkpt lat="51.2795220" lon="6.3566422">
<ele>70.8000000</ele>
<time>2007-09-12T21:49:48Z</time>
</trkpt>
<trkpt lat="51.2796500" lon="6.3560630">
<ele>70.3000000</ele>
<time>2007-09-12T21:49:55Z</time>
</trkpt>
<trkpt lat="51.2799100" lon="6.3553977">
<ele>70.8000000</ele>
<time>2007-09-12T21:50:03Z</time>
</trkpt>
<trkpt lat="51.2800830" lon="6.3545823">
<ele>70.8000000</ele>
<time>2007-09-12T21:50:13Z</time>
</trkpt>
<trkpt lat="51.2803600" lon="6.3537884">
<ele>70.8000000</ele>
<time>2007-09-12T21:50:22Z</time>
</trkpt>
<trkpt lat="51.2805980" lon="6.3529515">
<ele>71.3000000</ele>
<time>2007-09-12T21:50:32Z</time>
</trkpt>
<trkpt lat="51.2808340" lon="6.3525653">
<ele>70.8000000</ele>
<time>2007-09-12T21:50:38Z</time>
</trkpt>
<trkpt lat="51.2810670" lon="6.3524795">
<ele>70.8000000</ele>
<time>2007-09-12T21:50:42Z</time>
</trkpt>
<trkpt lat="51.2812600" lon="6.3526080">
<ele>71.3000000</ele>
<time>2007-09-12T21:50:46Z</time>
</trkpt>
<trkpt lat="51.2814980" lon="6.3528440">
<ele>71.8000000</ele>
<time>2007-09-12T21:50:51Z</time>
</trkpt>
<trkpt lat="51.2815400" lon="6.3528870">
<ele>71.8000000</ele>
<time>2007-09-12T21:50:52Z</time>
</trkpt>
<trkpt lat="51.2816930" lon="6.3527584">
<ele>71.8000000</ele>
<time>2007-09-12T21:50:55Z</time>
</trkpt>
<trkpt lat="51.2817340" lon="6.3523720">
<ele>72.2000000</ele>
<time>2007-09-12T21:50:59Z</time>
</trkpt>
<trkpt lat="51.2819250" lon="6.3517930">
<ele>72.2000000</ele>
<time>2007-09-12T21:51:06Z</time>
</trkpt>
<trkpt lat="51.2827400" lon="6.3499475">
<ele>75.1000000</ele>
<time>2007-09-12T21:51:31Z</time>
</trkpt>
<trkpt lat="51.2822315" lon="6.3490093">
<ele>0.0000000</ele>
<time>2007-09-12T21:51:44Z</time>
</trkpt>
<trkpt lat="51.2818721" lon="6.3477885">
<ele>0.0000000</ele>
<time>2007-09-12T21:51:59Z</time>
</trkpt>
<trkpt lat="51.2819171" lon="6.3457060">
<ele>0.0000000</ele>
<time>2007-09-12T21:52:22Z</time>
</trkpt>
<trkpt lat="51.2821866" lon="6.3444134">
<ele>0.0000000</ele>
<time>2007-09-12T21:52:37Z</time>
</trkpt>
<trkpt lat="51.2821416" lon="6.3413972">
<ele>0.0000000</ele>
<time>2007-09-12T21:53:09Z</time>
</trkpt>
<trkpt lat="51.2819620" lon="6.3398174">
<ele>0.0000000</ele>
<time>2007-09-12T21:53:27Z</time>
</trkpt>
<trkpt lat="51.2811086" lon="6.3362986">
<ele>0.0000000</ele>
<time>2007-09-12T21:54:08Z</time>
</trkpt>
<trkpt lat="51.2811086" lon="6.3345034">
<ele>0.0000000</ele>
<time>2007-09-12T21:54:28Z</time>
</trkpt>
<trkpt lat="51.2810636" lon="6.3323490">
<ele>0.0000000</ele>
<time>2007-09-12T21:54:51Z</time>
</trkpt>
<trkpt lat="51.2808391" lon="6.3295483">
<ele>0.0000000</ele>
<time>2007-09-12T21:55:22Z</time>
</trkpt>
<trkpt lat="51.2804348" lon="6.3249524">
<ele>0.0000000</ele>
<time>2007-09-12T21:56:12Z</time>
</trkpt>
<trkpt lat="51.2829501" lon="6.3240907">
<ele>0.0000000</ele>
<time>2007-09-12T21:56:57Z</time>
</trkpt>
<trkpt lat="51.2837137" lon="6.3234444">
<ele>0.0000000</ele>
<time>2007-09-12T21:57:12Z</time>
</trkpt>
<trkpt lat="51.2842976" lon="6.3227263">
<ele>0.0000000</ele>
<time>2007-09-12T21:57:25Z</time>
</trkpt>
<trkpt lat="51.2865883" lon="6.3213618">
<ele>0.0000000</ele>
<time>2007-09-12T21:58:07Z</time>
</trkpt>
<trkpt lat="51.2887442" lon="6.3202128">
<ele>0.0000000</ele>
<time>2007-09-12T21:58:47Z</time>
</trkpt>
<trkpt lat="51.2889689" lon="6.3198538">
<ele>0.0000000</ele>
<time>2007-09-12T21:58:52Z</time>
</trkpt>
<trkpt lat="51.2897773" lon="6.3191357">
<ele>0.0000000</ele>
<time>2007-09-12T21:59:09Z</time>
</trkpt>
<trkpt lat="51.2911248" lon="6.3184894">
<ele>0.0000000</ele>
<time>2007-09-12T21:59:33Z</time>
</trkpt>
<trkpt lat="51.2911248" lon="6.3185612">
<ele>0.0000000</ele>
<time>2007-09-12T21:59:34Z</time>
</trkpt>
<trkpt lat="51.2937299" lon="6.3189202">
<ele>0.0000000</ele>
<time>2007-09-12T22:00:19Z</time>
</trkpt>
<trkpt lat="51.2953469" lon="6.3197820">
<ele>0.0000000</ele>
<time>2007-09-12T22:00:49Z</time>
</trkpt>
<trkpt lat="51.2969189" lon="6.3208591">
<ele>0.0000000</ele>
<time>2007-09-12T22:01:19Z</time>
</trkpt>
<trkpt lat="51.2975927" lon="6.3215055">
<ele>0.0000000</ele>
<time>2007-09-12T22:01:32Z</time>
</trkpt>
<trkpt lat="51.2978172" lon="6.3206437">
<ele>0.0000000</ele>
<time>2007-09-12T22:01:43Z</time>
</trkpt>
<trkpt lat="51.2982330" lon="6.3191130">
<ele>53.0000000</ele>
<time>2007-09-12T22:02:01Z</time>
</trkpt>
<trkpt lat="51.2987300" lon="6.3173532">
<ele>50.6000000</ele>
<time>2007-09-12T22:02:22Z</time>
</trkpt>
<trkpt lat="51.2990720" lon="6.3161087">
<ele>50.1000000</ele>
<time>2007-09-12T22:02:37Z</time>
</trkpt>
<trkpt lat="51.2993700" lon="6.3150573">
<ele>49.2000000</ele>
<time>2007-09-12T22:02:49Z</time>
</trkpt>
<trkpt lat="51.2995870" lon="6.3149285">
<ele>49.6000000</ele>
<time>2007-09-12T22:02:53Z</time>
</trkpt>
<trkpt lat="51.2996520" lon="6.3149930">
<ele>49.6000000</ele>
<time>2007-09-12T22:02:55Z</time>
</trkpt>
<trkpt lat="51.3004040" lon="6.3156150">
<ele>50.6000000</ele>
<time>2007-09-12T22:03:09Z</time>
</trkpt>
<trkpt lat="51.3008300" lon="6.3159585">
<ele>50.1000000</ele>
<time>2007-09-12T22:03:18Z</time>
</trkpt>
<trkpt lat="51.3010670" lon="6.3163447">
<ele>52.0000000</ele>
<time>2007-09-12T22:03:24Z</time>
</trkpt>
<trkpt lat="51.3016470" lon="6.3165164">
<ele>52.5000000</ele>
<time>2007-09-12T22:03:34Z</time>
</trkpt>
<trkpt lat="51.3024180" lon="6.3166237">
<ele>54.5000000</ele>
<time>2007-09-12T22:03:47Z</time>
</trkpt>
<trkpt lat="51.3031920" lon="6.3169240">
<ele>58.8000000</ele>
<time>2007-09-12T22:04:01Z</time>
</trkpt>
<trkpt lat="51.3036420" lon="6.3170530">
<ele>57.8000000</ele>
<time>2007-09-12T22:04:09Z</time>
</trkpt>
<trkpt lat="51.3041150" lon="6.3174390">
<ele>59.7000000</ele>
<time>2007-09-12T22:04:18Z</time>
</trkpt>
<trkpt lat="51.3044130" lon="6.3178470">
<ele>62.6000000</ele>
<time>2007-09-12T22:04:25Z</time>
</trkpt>
<trkpt lat="51.3047370" lon="6.3184260">
<ele>66.0000000</ele>
<time>2007-09-12T22:04:34Z</time>
</trkpt>
<trkpt lat="51.3047140" lon="6.3185550">
<ele>66.5000000</ele>
<time>2007-09-12T22:04:35Z</time>
</trkpt>
<trkpt lat="51.3046500" lon="6.3189197">
<ele>66.5000000</ele>
<time>2007-09-12T22:04:39Z</time>
</trkpt>
<trkpt lat="51.3045230" lon="6.3194560">
<ele>67.4000000</ele>
<time>2007-09-12T22:04:46Z</time>
</trkpt>
<trkpt lat="51.3049500" lon="6.3197350">
<ele>66.5000000</ele>
<time>2007-09-12T22:04:54Z</time>
</trkpt>
<trkpt lat="51.3052060" lon="6.3198853">
<ele>66.5000000</ele>
<time>2007-09-12T22:04:58Z</time>
</trkpt>
<trkpt lat="51.3052300" lon="6.3199710">
<ele>66.9000000</ele>
<time>2007-09-12T22:04:59Z</time>
</trkpt>
<trkpt lat="51.3051870" lon="6.3200355">
<ele>66.9000000</ele>
<time>2007-09-12T22:05:00Z</time>
</trkpt>
<trkpt lat="51.3051000" lon="6.3202500">
<ele>67.4000000</ele>
<time>2007-09-12T22:05:03Z</time>
</trkpt>
<trkpt lat="51.3051220" lon="6.3203573">
<ele>67.4000000</ele>
<time>2007-09-12T22:05:04Z</time>
</trkpt>
<trkpt lat="51.3053600" lon="6.3204646">
<ele>68.4000000</ele>
<time>2007-09-12T22:05:09Z</time>
</trkpt>
<trkpt lat="51.3056800" lon="6.3206150">
<ele>73.2000000</ele>
<time>2007-09-12T22:05:14Z</time>
</trkpt>
<trkpt lat="51.3060040" lon="6.3205504">
<ele>76.6000000</ele>
<time>2007-09-12T22:05:20Z</time>
</trkpt>
<trkpt lat="51.3063660" lon="6.3203360">
<ele>75.6000000</ele>
<time>2007-09-12T22:05:27Z</time>
</trkpt>
<trkpt lat="51.3067100" lon="6.3205504">
<ele>76.6000000</ele>
<time>2007-09-12T22:05:33Z</time>
</trkpt>
<trkpt lat="51.3071820" lon="6.3208510">
<ele>77.0000000</ele>
<time>2007-09-12T22:05:42Z</time>
</trkpt>
<trkpt lat="51.3075900" lon="6.3211083">
<ele>76.6000000</ele>
<time>2007-09-12T22:05:50Z</time>
</trkpt>
<trkpt lat="51.3081700" lon="6.3215804">
<ele>73.7000000</ele>
<time>2007-09-12T22:06:01Z</time>
</trkpt>
<trkpt lat="51.3083420" lon="6.3217090">
<ele>73.2000000</ele>
<time>2007-09-12T22:06:04Z</time>
</trkpt>
<trkpt lat="51.3088760" lon="6.3211940">
<ele>71.8000000</ele>
<time>2007-09-12T22:06:15Z</time>
</trkpt>
<trkpt lat="51.3093900" lon="6.3209367">
<ele>76.1000000</ele>
<time>2007-09-12T22:06:25Z</time>
</trkpt>
<trkpt lat="51.3099940" lon="6.3205720">
<ele>77.0000000</ele>
<time>2007-09-12T22:06:36Z</time>
</trkpt>
<trkpt lat="51.3104200" lon="6.3201000">
<ele>77.5000000</ele>
<time>2007-09-12T22:06:45Z</time>
</trkpt>
<trkpt lat="51.3105100" lon="6.3198423">
<ele>77.0000000</ele>
<time>2007-09-12T22:06:48Z</time>
</trkpt>
<trkpt lat="51.3108940" lon="6.3194130">
<ele>76.6000000</ele>
<time>2007-09-12T22:06:56Z</time>
</trkpt>
<trkpt lat="51.3116230" lon="6.3191770">
<ele>79.0000000</ele>
<time>2007-09-12T22:07:09Z</time>
</trkpt>
<trkpt lat="51.3124800" lon="6.3189197">
<ele>79.4000000</ele>
<time>2007-09-12T22:07:24Z</time>
</trkpt>
<trkpt lat="51.3129540" lon="6.3187265">
<ele>79.4000000</ele>
<time>2007-09-12T22:07:33Z</time>
</trkpt>
<trkpt lat="51.3136630" lon="6.3189626">
<ele>78.5000000</ele>
<time>2007-09-12T22:07:45Z</time>
</trkpt>
<trkpt lat="51.3142620" lon="6.3191340">
<ele>80.4000000</ele>
<time>2007-09-12T22:07:56Z</time>
</trkpt>
<trkpt lat="51.3151660" lon="6.3188553">
<ele>79.4000000</ele>
<time>2007-09-12T22:08:12Z</time>
</trkpt>
<trkpt lat="51.3158950" lon="6.3184476">
<ele>77.5000000</ele>
<time>2007-09-12T22:08:26Z</time>
</trkpt>
<trkpt lat="51.3158950" lon="6.3182116">
<ele>77.0000000</ele>
<time>2007-09-12T22:08:28Z</time>
</trkpt>
<trkpt lat="51.3157650" lon="6.3170100">
<ele>72.2000000</ele>
<time>2007-09-12T22:08:41Z</time>
</trkpt>
<trkpt lat="51.3156800" lon="6.3159585">
<ele>72.2000000</ele>
<time>2007-09-12T22:08:53Z</time>
</trkpt>
<trkpt lat="51.3155500" lon="6.3148427">
<ele>73.2000000</ele>
<time>2007-09-12T22:09:05Z</time>
</trkpt>
<trkpt lat="51.3154220" lon="6.3135767">
<ele>73.7000000</ele>
<time>2007-09-12T22:09:19Z</time>
</trkpt>
<trkpt lat="51.3152730" lon="6.3123536">
<ele>75.1000000</ele>
<time>2007-09-12T22:09:33Z</time>
</trkpt>
<trkpt lat="51.3151860" lon="6.3113020">
<ele>75.1000000</ele>
<time>2007-09-12T22:09:44Z</time>
</trkpt>
<trkpt lat="51.3151000" lon="6.3107014">
<ele>74.6000000</ele>
<time>2007-09-12T22:09:51Z</time>
</trkpt>
<trkpt lat="51.3151860" lon="6.3104440">
<ele>74.2000000</ele>
<time>2007-09-12T22:09:54Z</time>
</trkpt>
<trkpt lat="51.3156600" lon="6.3103580">
<ele>75.6000000</ele>
<time>2007-09-12T22:10:02Z</time>
</trkpt>
<trkpt lat="51.3163220" lon="6.3098645">
<ele>75.1000000</ele>
<time>2007-09-12T22:10:15Z</time>
</trkpt>
<trkpt lat="51.3163870" lon="6.3095856">
<ele>75.1000000</ele>
<time>2007-09-12T22:10:18Z</time>
</trkpt>
<trkpt lat="51.3163220" lon="6.3084054">
<ele>74.6000000</ele>
<time>2007-09-12T22:10:31Z</time>
</trkpt>
<trkpt lat="51.3162800" lon="6.3077617">
<ele>75.1000000</ele>
<time>2007-09-12T22:10:38Z</time>
</trkpt>
<trkpt lat="51.3162400" lon="6.3068390">
<ele>68.9000000</ele>
<time>2007-09-12T22:10:48Z</time>
</trkpt>
<trkpt lat="51.3161740" lon="6.3052297">
<ele>62.1000000</ele>
<time>2007-09-12T22:11:06Z</time>
</trkpt>
<trkpt lat="51.3160000" lon="6.3041780">
<ele>58.3000000</ele>
<time>2007-09-12T22:11:18Z</time>
</trkpt>
<trkpt lat="51.3159140" lon="6.3037705">
<ele>57.8000000</ele>
<time>2007-09-12T22:11:22Z</time>
</trkpt>
<trkpt lat="51.3160440" lon="6.3034700">
<ele>57.3000000</ele>
<time>2007-09-12T22:11:26Z</time>
</trkpt>
<trkpt lat="51.3164100" lon="6.3032985">
<ele>57.3000000</ele>
<time>2007-09-12T22:11:33Z</time>
</trkpt>
<trkpt lat="51.3173100" lon="6.3031054">
<ele>58.8000000</ele>
<time>2007-09-12T22:11:49Z</time>
</trkpt>
<trkpt lat="51.3183630" lon="6.3028910">
<ele>59.3000000</ele>
<time>2007-09-12T22:12:07Z</time>
</trkpt>
<trkpt lat="51.3191340" lon="6.3028910">
<ele>60.7000000</ele>
<time>2007-09-12T22:12:21Z</time>
</trkpt>
<trkpt lat="51.3199100" lon="6.3030840">
<ele>62.6000000</ele>
<time>2007-09-12T22:12:34Z</time>
</trkpt>
<trkpt lat="51.3205700" lon="6.3029980">
<ele>63.6000000</ele>
<time>2007-09-12T22:12:46Z</time>
</trkpt>
<trkpt lat="51.3206370" lon="6.3025904">
<ele>63.6000000</ele>
<time>2007-09-12T22:12:51Z</time>
</trkpt>
<trkpt lat="51.3206140" lon="6.3024400">
<ele>63.6000000</ele>
<time>2007-09-12T22:12:52Z</time>
</trkpt>
<trkpt lat="51.3203600" lon="6.3018610">
<ele>63.1000000</ele>
<time>2007-09-12T22:13:00Z</time>
</trkpt>
<trkpt lat="51.3208920" lon="6.3022256">
<ele>63.6000000</ele>
<time>2007-09-12T22:13:10Z</time>
</trkpt>
<trkpt lat="51.3213900" lon="6.3024830">
<ele>62.6000000</ele>
<time>2007-09-12T22:13:19Z</time>
</trkpt>
<trkpt lat="51.3216900" lon="6.3024616">
<ele>66.5000000</ele>
<time>2007-09-12T22:13:24Z</time>
</trkpt>
<trkpt lat="51.3221800" lon="6.3022685">
<ele>72.2000000</ele>
<time>2007-09-12T22:13:33Z</time>
</trkpt>
<trkpt lat="51.3223100" lon="6.3022685">
<ele>73.2000000</ele>
<time>2007-09-12T22:13:35Z</time>
</trkpt>
<trkpt lat="51.3225670" lon="6.3027406">
<ele>74.2000000</ele>
<time>2007-09-12T22:13:42Z</time>
</trkpt>
<trkpt lat="51.3231240" lon="6.3038564">
<ele>74.6000000</ele>
<time>2007-09-12T22:13:58Z</time>
</trkpt>
<trkpt lat="51.3232540" lon="6.3040924">
<ele>74.6000000</ele>
<time>2007-09-12T22:14:01Z</time>
</trkpt>
<trkpt lat="51.3234900" lon="6.3040710">
<ele>74.6000000</ele>
<time>2007-09-12T22:14:05Z</time>
</trkpt>
<trkpt lat="51.3240050" lon="6.3034916">
<ele>74.2000000</ele>
<time>2007-09-12T22:14:16Z</time>
</trkpt>
<trkpt lat="51.3245200" lon="6.3028050">
<ele>74.2000000</ele>
<time>2007-09-12T22:14:28Z</time>
</trkpt>
<trkpt lat="51.3250120" lon="6.3021610">
<ele>71.8000000</ele>
<time>2007-09-12T22:14:39Z</time>
</trkpt>
<trkpt lat="51.3256150" lon="6.3013887">
<ele>71.8000000</ele>
<time>2007-09-12T22:14:52Z</time>
</trkpt>
<trkpt lat="51.3261950" lon="6.3005950">
<ele>69.8000000</ele>
<time>2007-09-12T22:15:06Z</time>
</trkpt>
<trkpt lat="51.3268600" lon="6.2996936">
<ele>70.8000000</ele>
<time>2007-09-12T22:15:21Z</time>
</trkpt>
<trkpt lat="51.3275870" lon="6.2987065">
<ele>70.3000000</ele>
<time>2007-09-12T22:15:37Z</time>
</trkpt>
<trkpt lat="51.3281020" lon="6.2978053">
<ele>68.9000000</ele>
<time>2007-09-12T22:15:51Z</time>
</trkpt>
<trkpt lat="51.3285750" lon="6.2964535">
<ele>68.9000000</ele>
<time>2007-09-12T22:16:08Z</time>
</trkpt>
<trkpt lat="51.3286630" lon="6.2959600">
<ele>68.9000000</ele>
<time>2007-09-12T22:16:13Z</time>
</trkpt>
<trkpt lat="51.3287470" lon="6.2957883">
<ele>68.9000000</ele>
<time>2007-09-12T22:16:16Z</time>
</trkpt>
<trkpt lat="51.3293270" lon="6.2952304">
<ele>68.9000000</ele>
<time>2007-09-12T22:16:27Z</time>
</trkpt>
<trkpt lat="51.3298400" lon="6.2947800">
<ele>69.8000000</ele>
<time>2007-09-12T22:16:37Z</time>
</trkpt>
<trkpt lat="51.3303340" lon="6.2937284">
<ele>74.6000000</ele>
<time>2007-09-12T22:16:52Z</time>
</trkpt>
<trkpt lat="51.3307000" lon="6.2929560">
<ele>73.7000000</ele>
<time>2007-09-12T22:17:02Z</time>
</trkpt>
<trkpt lat="51.3308500" lon="6.2927200">
<ele>73.2000000</ele>
<time>2007-09-12T22:17:06Z</time>
</trkpt>
<trkpt lat="51.3313000" lon="6.2922480">
<ele>73.7000000</ele>
<time>2007-09-12T22:17:15Z</time>
</trkpt>
<trkpt lat="51.3320100" lon="6.2919474">
<ele>77.0000000</ele>
<time>2007-09-12T22:17:28Z</time>
</trkpt>
<trkpt lat="51.3320960" lon="6.2917542">
<ele>77.0000000</ele>
<time>2007-09-12T22:17:31Z</time>
</trkpt>
<trkpt lat="51.3320730" lon="6.2908100">
<ele>74.2000000</ele>
<time>2007-09-12T22:17:41Z</time>
</trkpt>
<trkpt lat="51.3320960" lon="6.2897587">
<ele>72.2000000</ele>
<time>2007-09-12T22:17:52Z</time>
</trkpt>
<trkpt lat="51.3320730" lon="6.2881494">
<ele>66.5000000</ele>
<time>2007-09-12T22:18:10Z</time>
</trkpt>
<trkpt lat="51.3320730" lon="6.2874413">
<ele>64.1000000</ele>
<time>2007-09-12T22:18:18Z</time>
</trkpt>
<trkpt lat="51.3322030" lon="6.2870120">
<ele>62.6000000</ele>
<time>2007-09-12T22:18:23Z</time>
</trkpt>
<trkpt lat="51.3323500" lon="6.2866690">
<ele>61.2000000</ele>
<time>2007-09-12T22:18:27Z</time>
</trkpt>
<trkpt lat="51.3324170" lon="6.2862396">
<ele>59.7000000</ele>
<time>2007-09-12T22:18:32Z</time>
</trkpt>
<trkpt lat="51.3322680" lon="6.2853170">
<ele>58.8000000</ele>
<time>2007-09-12T22:18:43Z</time>
</trkpt>
<trkpt lat="51.3322680" lon="6.2848880">
<ele>57.3000000</ele>
<time>2007-09-12T22:18:47Z</time>
</trkpt>
<trkpt lat="51.3326530" lon="6.2832355">
<ele>53.0000000</ele>
<time>2007-09-12T22:19:06Z</time>
</trkpt>
<trkpt lat="51.3330400" lon="6.2818410">
<ele>49.6000000</ele>
<time>2007-09-12T22:19:23Z</time>
</trkpt>
<trkpt lat="51.3332520" lon="6.2810040">
<ele>46.8000000</ele>
<time>2007-09-12T22:19:33Z</time>
</trkpt>
<trkpt lat="51.3333630" lon="6.2807465">
<ele>46.3000000</ele>
<time>2007-09-12T22:19:36Z</time>
</trkpt>
<trkpt lat="51.3341560" lon="6.2811112">
<ele>47.7000000</ele>
<time>2007-09-12T22:19:51Z</time>
</trkpt>
<trkpt lat="51.3347550" lon="6.2812614">
<ele>48.7000000</ele>
<time>2007-09-12T22:20:01Z</time>
</trkpt>
<trkpt lat="51.3351000" lon="6.2813687">
<ele>48.7000000</ele>
<time>2007-09-12T22:20:07Z</time>
</trkpt>
<trkpt lat="51.3351400" lon="6.2813044">
<ele>49.2000000</ele>
<time>2007-09-12T22:20:08Z</time>
</trkpt>
<trkpt lat="51.3355700" lon="6.2806177">
<ele>50.6000000</ele>
<time>2007-09-12T22:20:19Z</time>
</trkpt>
<trkpt lat="51.3356550" lon="6.2804890">
<ele>51.1000000</ele>
<time>2007-09-12T22:20:21Z</time>
</trkpt>
<trkpt lat="51.3361300" lon="6.2803390">
<ele>55.9000000</ele>
<time>2007-09-12T22:20:29Z</time>
</trkpt>
<trkpt lat="51.3366200" lon="6.2805750">
<ele>56.9000000</ele>
<time>2007-09-12T22:20:38Z</time>
</trkpt>
<trkpt lat="51.3369870" lon="6.2809610">
<ele>58.8000000</ele>
<time>2007-09-12T22:20:46Z</time>
</trkpt>
<trkpt lat="51.3373530" lon="6.2813473">
<ele>64.5000000</ele>
<time>2007-09-12T22:20:53Z</time>
</trkpt>
<trkpt lat="51.3377800" lon="6.2813044">
<ele>70.3000000</ele>
<time>2007-09-12T22:21:01Z</time>
</trkpt>
<trkpt lat="51.3382300" lon="6.2811540">
<ele>73.2000000</ele>
<time>2007-09-12T22:21:09Z</time>
</trkpt>
<trkpt lat="51.3383180" lon="6.2811112">
<ele>73.2000000</ele>
<time>2007-09-12T22:21:10Z</time>
</trkpt>
<trkpt lat="51.3388330" lon="6.2805533">
<ele>74.6000000</ele>
<time>2007-09-12T22:21:21Z</time>
</trkpt>
<trkpt lat="51.3390270" lon="6.2803390">
<ele>74.6000000</ele>
<time>2007-09-12T22:21:25Z</time>
</trkpt>
<trkpt lat="51.3399700" lon="6.2798023">
<ele>77.0000000</ele>
<time>2007-09-12T22:21:43Z</time>
</trkpt>
<trkpt lat="51.3401400" lon="6.2797165">
<ele>78.0000000</ele>
<time>2007-09-12T22:21:46Z</time>
</trkpt>
<trkpt lat="51.3400760" lon="6.2797594">
<ele>78.5000000</ele>
<time>2007-09-12T22:21:47Z</time>
</trkpt>
<trkpt lat="51.3399930" lon="6.2797594">
<ele>78.5000000</ele>
<time>2007-09-12T22:21:49Z</time>
</trkpt>
<trkpt lat="51.3398200" lon="6.2792015">
<ele>77.0000000</ele>
<time>2007-09-12T22:21:55Z</time>
</trkpt>
<trkpt lat="51.3395420" lon="6.2780000">
<ele>73.7000000</ele>
<time>2007-09-12T22:22:09Z</time>
</trkpt>
<trkpt lat="51.3389400" lon="6.2767770">
<ele>69.8000000</ele>
<time>2007-09-12T22:22:26Z</time>
</trkpt>
<trkpt lat="51.3383600" lon="6.2758110">
<ele>65.0000000</ele>
<time>2007-09-12T22:22:41Z</time>
</trkpt>
<trkpt lat="51.3380400" lon="6.2753606">
<ele>61.7000000</ele>
<time>2007-09-12T22:22:48Z</time>
</trkpt>
<trkpt lat="51.3380600" lon="6.2749100">
<ele>59.7000000</ele>
<time>2007-09-12T22:22:53Z</time>
</trkpt>
<trkpt lat="51.3384000" lon="6.2736654">
<ele>55.4000000</ele>
<time>2007-09-12T22:23:08Z</time>
</trkpt>
<trkpt lat="51.3385100" lon="6.2734510">
<ele>54.9000000</ele>
<time>2007-09-12T22:23:11Z</time>
</trkpt>
<trkpt lat="51.3388100" lon="6.2731720">
<ele>54.9000000</ele>
<time>2007-09-12T22:23:17Z</time>
</trkpt>
<trkpt lat="51.3389170" lon="6.2732363">
<ele>54.9000000</ele>
<time>2007-09-12T22:23:19Z</time>
</trkpt>
<trkpt lat="51.3390900" lon="6.2734940">
<ele>55.9000000</ele>
<time>2007-09-12T22:23:23Z</time>
</trkpt>
<trkpt lat="51.3394970" lon="6.2742233">
<ele>55.9000000</ele>
<time>2007-09-12T22:23:34Z</time>
</trkpt>
<trkpt lat="51.3397330" lon="6.2737513">
<ele>54.9000000</ele>
<time>2007-09-12T22:23:40Z</time>
</trkpt>
<trkpt lat="51.3403550" lon="6.2728930">
<ele>52.5000000</ele>
<time>2007-09-12T22:23:55Z</time>
</trkpt>
<trkpt lat="51.3404430" lon="6.2727857">
<ele>53.0000000</ele>
<time>2007-09-12T22:23:56Z</time>
</trkpt>
<trkpt lat="51.3409350" lon="6.2727000">
<ele>53.0000000</ele>
<time>2007-09-12T22:24:05Z</time>
</trkpt>
<trkpt lat="51.3417300" lon="6.2726784">
<ele>54.0000000</ele>
<time>2007-09-12T22:24:19Z</time>
</trkpt>
<trkpt lat="51.3420300" lon="6.2726355">
<ele>54.9000000</ele>
<time>2007-09-12T22:24:24Z</time>
</trkpt>
<trkpt lat="51.3429950" lon="6.2727213">
<ele>55.9000000</ele>
<time>2007-09-12T22:24:41Z</time>
</trkpt>
<trkpt lat="51.3438300" lon="6.2728286">
<ele>55.9000000</ele>
<time>2007-09-12T22:24:56Z</time>
</trkpt>
<trkpt lat="51.3439400" lon="6.2730646">
<ele>57.8000000</ele>
<time>2007-09-12T22:24:59Z</time>
</trkpt>
<trkpt lat="51.3439180" lon="6.2733436">
<ele>59.3000000</ele>
<time>2007-09-12T22:25:02Z</time>
</trkpt>
<trkpt lat="51.3437900" lon="6.2737300">
<ele>58.8000000</ele>
<time>2007-09-12T22:25:07Z</time>
</trkpt>
<trkpt lat="51.3438100" lon="6.2738370">
<ele>58.3000000</ele>
<time>2007-09-12T22:25:08Z</time>
</trkpt>
<trkpt lat="51.3439600" lon="6.2736870">
<ele>58.3000000</ele>
<time>2007-09-12T22:25:11Z</time>
</trkpt>
<trkpt lat="51.3440480" lon="6.2736440">
<ele>58.3000000</ele>
<time>2007-09-12T22:25:12Z</time>
</trkpt>
<trkpt lat="51.3445630" lon="6.2728286">
<ele>58.3000000</ele>
<time>2007-09-12T22:25:25Z</time>
</trkpt>
<trkpt lat="51.3446460" lon="6.2725496">
<ele>58.3000000</ele>
<time>2007-09-12T22:25:28Z</time>
</trkpt>
<trkpt lat="51.3448200" lon="6.2722920">
<ele>58.3000000</ele>
<time>2007-09-12T22:25:33Z</time>
</trkpt>
<trkpt lat="51.3451200" lon="6.2722490">
<ele>60.2000000</ele>
<time>2007-09-12T22:25:38Z</time>
</trkpt>
<trkpt lat="51.3458700" lon="6.2722280">
<ele>65.0000000</ele>
<time>2007-09-12T22:25:51Z</time>
</trkpt>
<trkpt lat="51.3463200" lon="6.2721420">
<ele>65.5000000</ele>
<time>2007-09-12T22:25:59Z</time>
</trkpt>
<trkpt lat="51.3471370" lon="6.2717770">
<ele>65.5000000</ele>
<time>2007-09-12T22:26:13Z</time>
</trkpt>
<trkpt lat="51.3476520" lon="6.2715840">
<ele>65.5000000</ele>
<time>2007-09-12T22:26:23Z</time>
</trkpt>
<trkpt lat="51.3477170" lon="6.2716270">
<ele>65.5000000</ele>
<time>2007-09-12T22:26:24Z</time>
</trkpt>
<trkpt lat="51.3482500" lon="6.2731934">
<ele>66.5000000</ele>
<time>2007-09-12T22:26:43Z</time>
</trkpt>
<trkpt lat="51.3481250" lon="6.2737727">
<ele>66.5000000</ele>
<time>2007-09-12T22:26:50Z</time>
</trkpt>
<trkpt lat="51.3481670" lon="6.2740300">
<ele>66.5000000</ele>
<time>2007-09-12T22:26:53Z</time>
</trkpt>
<trkpt lat="51.3482740" lon="6.2740088">
<ele>66.5000000</ele>
<time>2007-09-12T22:26:55Z</time>
</trkpt>
<trkpt lat="51.3484230" lon="6.2739015">
<ele>66.5000000</ele>
<time>2007-09-12T22:26:58Z</time>
</trkpt>
<trkpt lat="51.3485300" lon="6.2738156">
<ele>65.5000000</ele>
<time>2007-09-12T22:27:00Z</time>
</trkpt>
<trkpt lat="51.3498600" lon="6.2727857">
<ele>64.1000000</ele>
<time>2007-09-12T22:27:25Z</time>
</trkpt>
<trkpt lat="51.3509330" lon="6.2717986">
<ele>61.7000000</ele>
<time>2007-09-12T22:27:47Z</time>
</trkpt>
<trkpt lat="51.3519860" lon="6.2707900">
<ele>61.7000000</ele>
<time>2007-09-12T22:28:08Z</time>
</trkpt>
<trkpt lat="51.3520930" lon="6.2708760">
<ele>59.7000000</ele>
<time>2007-09-12T22:28:10Z</time>
</trkpt>
<trkpt lat="51.3521350" lon="6.2710905">
<ele>57.8000000</ele>
<time>2007-09-12T22:28:13Z</time>
</trkpt>
<trkpt lat="51.3522870" lon="6.2723780">
<ele>56.9000000</ele>
<time>2007-09-12T22:28:27Z</time>
</trkpt>
<trkpt lat="51.3526500" lon="6.2740517">
<ele>50.6000000</ele>
<time>2007-09-12T22:28:46Z</time>
</trkpt>
<trkpt lat="51.3529740" lon="6.2756610">
<ele>45.8000000</ele>
<time>2007-09-12T22:29:05Z</time>
</trkpt>
<trkpt lat="51.3533170" lon="6.2772920">
<ele>43.4000000</ele>
<time>2007-09-12T22:29:23Z</time>
</trkpt>
<trkpt lat="51.3535080" lon="6.2782145">
<ele>42.9000000</ele>
<time>2007-09-12T22:29:34Z</time>
</trkpt>
<trkpt lat="51.3529100" lon="6.2802315">
<ele>42.9000000</ele>
<time>2007-09-12T22:29:58Z</time>
</trkpt>
<trkpt lat="51.3525240" lon="6.2814546">
<ele>42.9000000</ele>
<time>2007-09-12T22:30:13Z</time>
</trkpt>
<trkpt lat="51.3531460" lon="6.2812830">
<ele>42.9000000</ele>
<time>2007-09-12T22:30:24Z</time>
</trkpt>
<trkpt lat="51.3534000" lon="6.2811756">
<ele>42.9000000</ele>
<time>2007-09-12T22:30:29Z</time>
</trkpt>
<trkpt lat="51.3535960" lon="6.2810900">
<ele>42.9000000</ele>
<time>2007-09-12T22:30:32Z</time>
</trkpt>
<trkpt lat="51.3539600" lon="6.2810254">
<ele>43.4000000</ele>
<time>2007-09-12T22:30:39Z</time>
</trkpt>
<trkpt lat="51.3541340" lon="6.2813900">
<ele>43.4000000</ele>
<time>2007-09-12T22:30:44Z</time>
</trkpt>
<trkpt lat="51.3540460" lon="6.2820340">
<ele>43.4000000</ele>
<time>2007-09-12T22:30:51Z</time>
</trkpt>
<trkpt lat="51.3540700" lon="6.2821627">
<ele>43.4000000</ele>
<time>2007-09-12T22:30:52Z</time>
</trkpt>
<trkpt lat="51.3541340" lon="6.2823343">
<ele>43.4000000</ele>
<time>2007-09-12T22:30:54Z</time>
</trkpt>
<trkpt lat="51.3541760" lon="6.2825060">
<ele>43.9000000</ele>
<time>2007-09-12T22:30:56Z</time>
</trkpt>
<trkpt lat="51.3543470" lon="6.2827420">
<ele>44.4000000</ele>
<time>2007-09-12T22:31:00Z</time>
</trkpt>
<trkpt lat="51.3545600" lon="6.2831070">
<ele>44.8000000</ele>
<time>2007-09-12T22:31:06Z</time>
</trkpt>
<trkpt lat="51.3547550" lon="6.2840295">
<ele>46.8000000</ele>
<time>2007-09-12T22:31:16Z</time>
</trkpt>
<trkpt lat="51.3551000" lon="6.2856817">
<ele>50.1000000</ele>
<time>2007-09-12T22:31:35Z</time>
</trkpt>
<trkpt lat="51.3553300" lon="6.2856817">
<ele>50.1000000</ele>
<time>2007-09-12T22:31:39Z</time>
</trkpt>
<trkpt lat="51.3562130" lon="6.2852097">
<ele>50.1000000</ele>
<time>2007-09-12T22:31:55Z</time>
</trkpt>
<trkpt lat="51.3564900" lon="6.2852526">
<ele>50.1000000</ele>
<time>2007-09-12T22:32:00Z</time>
</trkpt>
<trkpt lat="51.3567500" lon="6.2864113">
<ele>50.1000000</ele>
<time>2007-09-12T22:32:14Z</time>
</trkpt>
<trkpt lat="51.3569400" lon="6.2874840">
<ele>50.1000000</ele>
<time>2007-09-12T22:32:26Z</time>
</trkpt>
<trkpt lat="51.3570700" lon="6.2890290">
<ele>50.6000000</ele>
<time>2007-09-12T22:32:43Z</time>
</trkpt>
<trkpt lat="51.3572650" lon="6.2914540">
<ele>50.6000000</ele>
<time>2007-09-12T22:33:09Z</time>
</trkpt>
<trkpt lat="51.3573300" lon="6.2922263">
<ele>52.5000000</ele>
<time>2007-09-12T22:33:18Z</time>
</trkpt>
<trkpt lat="51.3574800" lon="6.2923120">
<ele>52.5000000</ele>
<time>2007-09-12T22:33:21Z</time>
</trkpt>
<trkpt lat="51.3584860" lon="6.2917757">
<ele>48.2000000</ele>
<time>2007-09-12T22:33:39Z</time>
</trkpt>
<trkpt lat="51.3591100" lon="6.2917113">
<ele>43.4000000</ele>
<time>2007-09-12T22:33:50Z</time>
</trkpt>
<trkpt lat="51.3598400" lon="6.2919690">
<ele>39.6000000</ele>
<time>2007-09-12T22:34:03Z</time>
</trkpt>
<trkpt lat="51.3600540" lon="6.2921834">
<ele>39.1000000</ele>
<time>2007-09-12T22:34:07Z</time>
</trkpt>
<trkpt lat="51.3601380" lon="6.2924194">
<ele>38.6000000</ele>
<time>2007-09-12T22:34:10Z</time>
</trkpt>
<trkpt lat="51.3602030" lon="6.2928700">
<ele>38.6000000</ele>
<time>2007-09-12T22:34:15Z</time>
</trkpt>
<trkpt lat="51.3603740" lon="6.2928486">
<ele>36.7000000</ele>
<time>2007-09-12T22:34:18Z</time>
</trkpt>
<trkpt lat="51.3604400" lon="6.2927413">
<ele>36.7000000</ele>
<time>2007-09-12T22:34:20Z</time>
</trkpt>
<trkpt lat="51.3606100" lon="6.2920976">
<ele>40.5000000</ele>
<time>2007-09-12T22:34:27Z</time>
</trkpt>
<trkpt lat="51.3608300" lon="6.2919044">
<ele>41.5000000</ele>
<time>2007-09-12T22:34:32Z</time>
</trkpt>
<trkpt lat="51.3608700" lon="6.2918830">
<ele>42.0000000</ele>
<time>2007-09-12T22:34:33Z</time>
</trkpt>
<trkpt lat="51.3609770" lon="6.2917757">
<ele>42.9000000</ele>
<time>2007-09-12T22:34:35Z</time>
</trkpt>
<trkpt lat="51.3610600" lon="6.2914324">
<ele>43.9000000</ele>
<time>2007-09-12T22:34:39Z</time>
</trkpt>
<trkpt lat="51.3609770" lon="6.2902950">
<ele>43.4000000</ele>
<time>2007-09-12T22:34:51Z</time>
</trkpt>
<trkpt lat="51.3609120" lon="6.2892010">
<ele>41.5000000</ele>
<time>2007-09-12T22:35:03Z</time>
</trkpt>
<trkpt lat="51.3609540" lon="6.2882137">
<ele>42.4000000</ele>
<time>2007-09-12T22:35:14Z</time>
</trkpt>
<trkpt lat="51.3609540" lon="6.2869050">
<ele>46.3000000</ele>
<time>2007-09-12T22:35:28Z</time>
</trkpt>
<trkpt lat="51.3612800" lon="6.2837505">
<ele>46.3000000</ele>
<time>2007-09-12T22:36:03Z</time>
</trkpt>
<trkpt lat="51.3613850" lon="6.2825704">
<ele>46.3000000</ele>
<time>2007-09-12T22:36:16Z</time>
</trkpt>
<trkpt lat="51.3606760" lon="6.2812830">
<ele>46.8000000</ele>
<time>2007-09-12T22:36:35Z</time>
</trkpt>
<trkpt lat="51.3600120" lon="6.2800170">
<ele>46.3000000</ele>
<time>2007-09-12T22:36:52Z</time>
</trkpt>
<trkpt lat="51.3601840" lon="6.2794375">
<ele>46.3000000</ele>
<time>2007-09-12T22:36:59Z</time>
</trkpt>
<trkpt lat="51.3602500" lon="6.2791370">
<ele>46.3000000</ele>
<time>2007-09-12T22:37:03Z</time>
</trkpt>
<trkpt lat="51.3603320" lon="6.2786650">
<ele>46.3000000</ele>
<time>2007-09-12T22:37:08Z</time>
</trkpt>
<trkpt lat="51.3603320" lon="6.2775920">
<ele>46.8000000</ele>
<time>2007-09-12T22:37:20Z</time>
</trkpt>
<trkpt lat="51.3605040" lon="6.2759830">
<ele>46.8000000</ele>
<time>2007-09-12T22:37:38Z</time>
</trkpt>
<trkpt lat="51.3608700" lon="6.2746525">
<ele>46.8000000</ele>
<time>2007-09-12T22:37:53Z</time>
</trkpt>
<trkpt lat="51.3612330" lon="6.2740946">
<ele>46.8000000</ele>
<time>2007-09-12T22:38:02Z</time>
</trkpt>
<trkpt lat="51.3617060" lon="6.2732577">
<ele>46.8000000</ele>
<time>2007-09-12T22:38:14Z</time>
</trkpt>
<trkpt lat="51.3619420" lon="6.2721634">
<ele>46.8000000</ele>
<time>2007-09-12T22:38:27Z</time>
</trkpt>
<trkpt lat="51.3620070" lon="6.2717130">
<ele>50.6000000</ele>
<time>2007-09-12T22:38:32Z</time>
</trkpt>
<trkpt lat="51.3620260" lon="6.2716270">
<ele>52.0000000</ele>
<time>2007-09-12T22:38:33Z</time>
</trkpt>
<trkpt lat="51.3620070" lon="6.2713265">
<ele>54.0000000</ele>
<time>2007-09-12T22:38:36Z</time>
</trkpt>
<trkpt lat="51.3620070" lon="6.2713050">
<ele>54.0000000</ele>
<time>2007-09-12T22:38:37Z</time>
</trkpt>
<trkpt lat="51.3620070" lon="6.2707257">
<ele>54.0000000</ele>
<time>2007-09-12T22:38:43Z</time>
</trkpt>
<trkpt lat="51.3619840" lon="6.2702320">
<ele>54.5000000</ele>
<time>2007-09-12T22:38:48Z</time>
</trkpt>
<trkpt lat="51.3619840" lon="6.2694170">
<ele>55.4000000</ele>
<time>2007-09-12T22:38:57Z</time>
</trkpt>
<trkpt lat="51.3619650" lon="6.2692880">
<ele>54.9000000</ele>
<time>2007-09-12T22:38:59Z</time>
</trkpt>
<trkpt lat="51.3614040" lon="6.2688375">
<ele>54.9000000</ele>
<time>2007-09-12T22:39:09Z</time>
</trkpt>
<trkpt lat="51.3611260" lon="6.2689660">
<ele>54.9000000</ele>
<time>2007-09-12T22:39:14Z</time>
</trkpt>
<trkpt lat="51.3609540" lon="6.2694170">
<ele>54.9000000</ele>
<time>2007-09-12T22:39:20Z</time>
</trkpt>
<trkpt lat="51.3601380" lon="6.2708116">
<ele>54.9000000</ele>
<time>2007-09-12T22:39:41Z</time>
</trkpt>
<trkpt lat="51.3600960" lon="6.2707043">
<ele>54.9000000</ele>
<time>2007-09-12T22:39:42Z</time>
</trkpt>
<trkpt lat="51.3601600" lon="6.2699747">
<ele>56.4000000</ele>
<time>2007-09-12T22:39:50Z</time>
</trkpt>
<trkpt lat="51.3603320" lon="6.2687945">
<ele>57.8000000</ele>
<time>2007-09-12T22:40:04Z</time>
</trkpt>
<trkpt lat="51.3603970" lon="6.2677000">
<ele>57.8000000</ele>
<time>2007-09-12T22:40:16Z</time>
</trkpt>
<trkpt lat="51.3607000" lon="6.2666060">
<ele>57.8000000</ele>
<time>2007-09-12T22:40:29Z</time>
</trkpt>
<trkpt lat="51.3610600" lon="6.2651896">
<ele>56.9000000</ele>
<time>2007-09-12T22:40:45Z</time>
</trkpt>
<trkpt lat="51.3613430" lon="6.2636020">
<ele>55.9000000</ele>
<time>2007-09-12T22:41:03Z</time>
</trkpt>
<trkpt lat="51.3614040" lon="6.2634945">
<ele>55.4000000</ele>
<time>2007-09-12T22:41:05Z</time>
</trkpt>
<trkpt lat="51.3615760" lon="6.2634945">
<ele>55.4000000</ele>
<time>2007-09-12T22:41:08Z</time>
</trkpt>
<trkpt lat="51.3618600" lon="6.2631940">
<ele>54.9000000</ele>
<time>2007-09-12T22:41:14Z</time>
</trkpt>
<trkpt lat="51.3617940" lon="6.2637305">
<ele>52.0000000</ele>
<time>2007-09-12T22:41:20Z</time>
</trkpt>
<trkpt lat="51.3618350" lon="6.2643957">
<ele>49.2000000</ele>
<time>2007-09-12T22:41:27Z</time>
</trkpt>
<trkpt lat="51.3618350" lon="6.2646103">
<ele>47.7000000</ele>
<time>2007-09-12T22:41:29Z</time>
</trkpt>
<trkpt lat="51.3618350" lon="6.2649107">
<ele>50.1000000</ele>
<time>2007-09-12T22:41:32Z</time>
</trkpt>
<trkpt lat="51.3617940" lon="6.2655973">
<ele>48.2000000</ele>
<time>2007-09-12T22:41:40Z</time>
</trkpt>
<trkpt lat="51.3617060" lon="6.2662625">
<ele>48.7000000</ele>
<time>2007-09-12T22:41:47Z</time>
</trkpt>
<trkpt lat="51.3617300" lon="6.2668850">
<ele>51.1000000</ele>
<time>2007-09-12T22:41:54Z</time>
</trkpt>
<trkpt lat="51.3617700" lon="6.2670780">
<ele>53.0000000</ele>
<time>2007-09-12T22:41:56Z</time>
</trkpt>
<trkpt lat="51.3619000" lon="6.2670350">
<ele>57.3000000</ele>
<time>2007-09-12T22:41:59Z</time>
</trkpt>
<trkpt lat="51.3620070" lon="6.2670135">
<ele>57.8000000</ele>
<time>2007-09-12T22:42:00Z</time>
</trkpt>
<trkpt lat="51.3623700" lon="6.2669063">
<ele>57.8000000</ele>
<time>2007-09-12T22:42:07Z</time>
</trkpt>
<trkpt lat="51.3627360" lon="6.2669490">
<ele>57.8000000</ele>
<time>2007-09-12T22:42:13Z</time>
</trkpt>
<trkpt lat="51.3636600" lon="6.2669063">
<ele>59.7000000</ele>
<time>2007-09-12T22:42:29Z</time>
</trkpt>
<trkpt lat="51.3644520" lon="6.2668420">
<ele>59.7000000</ele>
<time>2007-09-12T22:42:43Z</time>
</trkpt>
<trkpt lat="51.3651600" lon="6.2668633">
<ele>59.7000000</ele>
<time>2007-09-12T22:42:55Z</time>
</trkpt>
<trkpt lat="51.3662760" lon="6.2667990">
<ele>63.6000000</ele>
<time>2007-09-12T22:43:15Z</time>
</trkpt>
<trkpt lat="51.3670040" lon="6.2666490">
<ele>64.1000000</ele>
<time>2007-09-12T22:43:28Z</time>
</trkpt>
<trkpt lat="51.3674770" lon="6.2663054">
<ele>64.1000000</ele>
<time>2007-09-12T22:43:37Z</time>
</trkpt>
<trkpt lat="51.3683170" lon="6.2650180">
<ele>64.1000000</ele>
<time>2007-09-12T22:43:57Z</time>
</trkpt>
<trkpt lat="51.3684430" lon="6.2651896">
<ele>51.1000000</ele>
<time>2007-09-12T22:44:00Z</time>
</trkpt>
<trkpt lat="51.3686800" lon="6.2650394">
<ele>51.6000000</ele>
<time>2007-09-12T22:44:04Z</time>
</trkpt>
<trkpt lat="51.3690450" lon="6.2649107">
<ele>51.6000000</ele>
<time>2007-09-12T22:44:11Z</time>
</trkpt>
<trkpt lat="51.3702900" lon="6.2643957">
<ele>58.8000000</ele>
<time>2007-09-12T22:44:33Z</time>
</trkpt>
<trkpt lat="51.3705500" lon="6.2644600">
<ele>59.7000000</ele>
<time>2007-09-12T22:44:38Z</time>
</trkpt>
<trkpt lat="51.3705900" lon="6.2645030">
<ele>59.7000000</ele>
<time>2007-09-12T22:44:39Z</time>
</trkpt>
<trkpt lat="51.3707400" lon="6.2642884">
<ele>59.7000000</ele>
<time>2007-09-12T22:44:42Z</time>
</trkpt>
<trkpt lat="51.3708270" lon="6.2625720">
<ele>59.7000000</ele>
<time>2007-09-12T22:45:01Z</time>
</trkpt>
<trkpt lat="51.3708900" lon="6.2624860">
<ele>59.7000000</ele>
<time>2007-09-12T22:45:02Z</time>
</trkpt>
<trkpt lat="51.3712350" lon="6.2621856">
<ele>60.2000000</ele>
<time>2007-09-12T22:45:09Z</time>
</trkpt>
<trkpt lat="51.3712770" lon="6.2622285">
<ele>60.7000000</ele>
<time>2007-09-12T22:45:10Z</time>
</trkpt>
<trkpt lat="51.3713200" lon="6.2625720">
<ele>61.7000000</ele>
<time>2007-09-12T22:45:14Z</time>
</trkpt>
<trkpt lat="51.3714260" lon="6.2631726">
<ele>61.7000000</ele>
<time>2007-09-12T22:45:21Z</time>
</trkpt>
<trkpt lat="51.3716200" lon="6.2641597">
<ele>61.7000000</ele>
<time>2007-09-12T22:45:32Z</time>
</trkpt>
<trkpt lat="51.3718760" lon="6.2647176">
<ele>61.7000000</ele>
<time>2007-09-12T22:45:39Z</time>
</trkpt>
<trkpt lat="51.3720700" lon="6.2651680">
<ele>62.6000000</ele>
<time>2007-09-12T22:45:45Z</time>
</trkpt>
<trkpt lat="51.3722200" lon="6.2657046">
<ele>62.6000000</ele>
<time>2007-09-12T22:45:52Z</time>
</trkpt>
<trkpt lat="51.3725850" lon="6.2658978">
<ele>63.1000000</ele>
<time>2007-09-12T22:45:58Z</time>
</trkpt>
<trkpt lat="51.3736150" lon="6.2648034">
<ele>61.2000000</ele>
<time>2007-09-12T22:46:20Z</time>
</trkpt>
<trkpt lat="51.3744960" lon="6.2646747">
<ele>60.2000000</ele>
<time>2007-09-12T22:46:35Z</time>
</trkpt>
<trkpt lat="51.3758700" lon="6.2643743">
<ele>60.2000000</ele>
<time>2007-09-12T22:46:59Z</time>
</trkpt>
<trkpt lat="51.3770260" lon="6.2637950">
<ele>60.2000000</ele>
<time>2007-09-12T22:47:20Z</time>
</trkpt>
<trkpt lat="51.3775200" lon="6.2635803">
<ele>60.2000000</ele>
<time>2007-09-12T22:47:29Z</time>
</trkpt>
<trkpt lat="51.3773500" lon="6.2623787">
<ele>60.2000000</ele>
<time>2007-09-12T22:47:43Z</time>
</trkpt>
<trkpt lat="51.3772620" lon="6.2586020">
<ele>60.2000000</ele>
<time>2007-09-12T22:48:24Z</time>
</trkpt>
<trkpt lat="51.3781660" lon="6.2583660">
<ele>47.7000000</ele>
<time>2007-09-12T22:48:40Z</time>
</trkpt>
<trkpt lat="51.3784870" lon="6.2590100">
<ele>45.8000000</ele>
<time>2007-09-12T22:48:49Z</time>
</trkpt>
<trkpt lat="51.3793640" lon="6.2596320">
<ele>45.8000000</ele>
<time>2007-09-12T22:49:05Z</time>
</trkpt>
<trkpt lat="51.3794940" lon="6.2598250">
<ele>45.8000000</ele>
<time>2007-09-12T22:49:08Z</time>
</trkpt>
<trkpt lat="51.3795600" lon="6.2602544">
<ele>45.8000000</ele>
<time>2007-09-12T22:49:13Z</time>
</trkpt>
<trkpt lat="51.3795800" lon="6.2604046">
<ele>45.8000000</ele>
<time>2007-09-12T22:49:15Z</time>
</trkpt>
<trkpt lat="51.3793870" lon="6.2607694">
<ele>70.3000000</ele>
<time>2007-09-12T22:49:20Z</time>
</trkpt>
<trkpt lat="51.3794300" lon="6.2611127">
<ele>68.9000000</ele>
<time>2007-09-12T22:49:24Z</time>
</trkpt>
<trkpt lat="51.3795170" lon="6.2613700">
<ele>68.4000000</ele>
<time>2007-09-12T22:49:27Z</time>
</trkpt>
<trkpt lat="51.3798180" lon="6.2618423">
<ele>68.4000000</ele>
<time>2007-09-12T22:49:34Z</time>
</trkpt>
<trkpt lat="51.3799440" lon="6.2622285">
<ele>68.4000000</ele>
<time>2007-09-12T22:49:39Z</time>
</trkpt>
<trkpt lat="51.3794500" lon="6.2625504">
<ele>68.4000000</ele>
<time>2007-09-12T22:49:48Z</time>
</trkpt>
<trkpt lat="51.3790660" lon="6.2627864">
<ele>68.4000000</ele>
<time>2007-09-12T22:49:56Z</time>
</trkpt>
<trkpt lat="51.3795170" lon="6.2633657">
<ele>68.4000000</ele>
<time>2007-09-12T22:50:06Z</time>
</trkpt>
<trkpt lat="51.3796230" lon="6.2635160">
<ele>68.4000000</ele>
<time>2007-09-12T22:50:08Z</time>
</trkpt>
<trkpt lat="51.3798800" lon="6.2653184">
<ele>68.4000000</ele>
<time>2007-09-12T22:50:28Z</time>
</trkpt>
<trkpt lat="51.3796460" lon="6.2658550">
<ele>68.4000000</ele>
<time>2007-09-12T22:50:35Z</time>
</trkpt>
<trkpt lat="51.3785300" lon="6.2658978">
<ele>69.4000000</ele>
<time>2007-09-12T22:50:55Z</time>
</trkpt>
<trkpt lat="51.3779070" lon="6.2660265">
<ele>69.8000000</ele>
<time>2007-09-12T22:51:06Z</time>
</trkpt>
<trkpt lat="51.3773270" lon="6.2664127">
<ele>72.2000000</ele>
<time>2007-09-12T22:51:17Z</time>
</trkpt>
<trkpt lat="51.3767280" lon="6.2667346">
<ele>71.8000000</ele>
<time>2007-09-12T22:51:28Z</time>
</trkpt>
<trkpt lat="51.3762740" lon="6.2669920">
<ele>71.8000000</ele>
<time>2007-09-12T22:51:36Z</time>
</trkpt>
<trkpt lat="51.3755040" lon="6.2674212">
<ele>69.8000000</ele>
<time>2007-09-12T22:51:50Z</time>
</trkpt>
<trkpt lat="51.3745400" lon="6.2678933">
<ele>72.2000000</ele>
<time>2007-09-12T22:52:08Z</time>
</trkpt>
<trkpt lat="51.3740230" lon="6.2681510">
<ele>72.7000000</ele>
<time>2007-09-12T22:52:17Z</time>
</trkpt>
<trkpt lat="51.3732300" lon="6.2685370">
<ele>72.2000000</ele>
<time>2007-09-12T22:52:32Z</time>
</trkpt>
<trkpt lat="51.3722200" lon="6.2689877">
<ele>70.8000000</ele>
<time>2007-09-12T22:52:50Z</time>
</trkpt>
<trkpt lat="51.3718760" lon="6.2691593">
<ele>70.3000000</ele>
<time>2007-09-12T22:52:56Z</time>
</trkpt>
<trkpt lat="51.3717040" lon="6.2693310">
<ele>70.3000000</ele>
<time>2007-09-12T22:53:00Z</time>
</trkpt>
<trkpt lat="51.3716850" lon="6.2692237">
<ele>69.8000000</ele>
<time>2007-09-12T22:53:01Z</time>
</trkpt>
<trkpt lat="51.3716200" lon="6.2690950">
<ele>69.8000000</ele>
<time>2007-09-12T22:53:03Z</time>
</trkpt>
<trkpt lat="51.3715130" lon="6.2690306">
<ele>69.8000000</ele>
<time>2007-09-12T22:53:05Z</time>
</trkpt>
<trkpt lat="51.3712120" lon="6.2684510">
<ele>65.0000000</ele>
<time>2007-09-12T22:53:13Z</time>
</trkpt>
<trkpt lat="51.3709530" lon="6.2680864">
<ele>64.5000000</ele>
<time>2007-09-12T22:53:19Z</time>
</trkpt>
<trkpt lat="51.3706970" lon="6.2682366">
<ele>62.6000000</ele>
<time>2007-09-12T22:53:24Z</time>
</trkpt>
<trkpt lat="51.3702900" lon="6.2685370">
<ele>63.6000000</ele>
<time>2007-09-12T22:53:31Z</time>
</trkpt>
<trkpt lat="51.3697740" lon="6.2687300">
<ele>65.5000000</ele>
<time>2007-09-12T22:53:41Z</time>
</trkpt>
<trkpt lat="51.3689400" lon="6.2691164">
<ele>65.0000000</ele>
<time>2007-09-12T22:53:56Z</time>
</trkpt>
<trkpt lat="51.3681640" lon="6.2695240">
<ele>64.5000000</ele>
<time>2007-09-12T22:54:10Z</time>
</trkpt>
<trkpt lat="51.3675650" lon="6.2698245">
<ele>66.0000000</ele>
<time>2007-09-12T22:54:21Z</time>
</trkpt>
<trkpt lat="51.3674770" lon="6.2703610">
<ele>66.0000000</ele>
<time>2007-09-12T22:54:27Z</time>
</trkpt>
<trkpt lat="51.3668330" lon="6.2706184">
<ele>66.0000000</ele>
<time>2007-09-12T22:54:38Z</time>
</trkpt>
<trkpt lat="51.3659320" lon="6.2709618">
<ele>66.0000000</ele>
<time>2007-09-12T22:54:55Z</time>
</trkpt>
<trkpt lat="51.3649670" lon="6.2711120">
<ele>66.0000000</ele>
<time>2007-09-12T22:55:11Z</time>
</trkpt>
<trkpt lat="51.3641320" lon="6.2715410">
<ele>41.5000000</ele>
<time>2007-09-12T22:55:27Z</time>
</trkpt>
<trkpt lat="51.3637900" lon="6.2716700">
<ele>37.1000000</ele>
<time>2007-09-12T22:55:33Z</time>
</trkpt>
<trkpt lat="51.3633800" lon="6.2719703">
<ele>47.7000000</ele>
<time>2007-09-12T22:55:41Z</time>
</trkpt>
<trkpt lat="51.3636800" lon="6.2741804">
<ele>56.9000000</ele>
<time>2007-09-12T22:56:05Z</time>
</trkpt>
<trkpt lat="51.3634220" lon="6.2743520">
<ele>58.3000000</ele>
<time>2007-09-12T22:56:10Z</time>
</trkpt>
<trkpt lat="51.3629500" lon="6.2746310">
<ele>57.8000000</ele>
<time>2007-09-12T22:56:19Z</time>
</trkpt>
<trkpt lat="51.3629070" lon="6.2746525">
<ele>57.8000000</ele>
<time>2007-09-12T22:56:20Z</time>
</trkpt>
<trkpt lat="51.3620070" lon="6.2749960">
<ele>57.3000000</ele>
<time>2007-09-12T22:56:36Z</time>
</trkpt>
<trkpt lat="51.3611070" lon="6.2753177">
<ele>57.3000000</ele>
<time>2007-09-12T22:56:52Z</time>
</trkpt>
<trkpt lat="51.3603550" lon="6.2756180">
<ele>57.8000000</ele>
<time>2007-09-12T22:57:05Z</time>
</trkpt>
<trkpt lat="51.3601840" lon="6.2759614">
<ele>53.0000000</ele>
<time>2007-09-12T22:57:10Z</time>
</trkpt>
<trkpt lat="51.3596700" lon="6.2760687">
<ele>53.0000000</ele>
<time>2007-09-12T22:57:19Z</time>
</trkpt>
<trkpt lat="51.3585970" lon="6.2764335">
<ele>52.5000000</ele>
<time>2007-09-12T22:57:38Z</time>
</trkpt>
<trkpt lat="51.3585320" lon="6.2764550">
<ele>52.5000000</ele>
<time>2007-09-12T22:57:39Z</time>
</trkpt>
<trkpt lat="51.3583150" lon="6.2767982">
<ele>51.6000000</ele>
<time>2007-09-12T22:57:45Z</time>
</trkpt>
<trkpt lat="51.3585740" lon="6.2773130">
<ele>51.1000000</ele>
<time>2007-09-12T22:57:52Z</time>
</trkpt>
<trkpt lat="51.3586800" lon="6.2775280">
<ele>51.1000000</ele>
<time>2007-09-12T22:57:55Z</time>
</trkpt>
<trkpt lat="51.3590660" lon="6.2782145">
<ele>51.1000000</ele>
<time>2007-09-12T22:58:05Z</time>
</trkpt>
<trkpt lat="51.3596700" lon="6.2794375">
<ele>49.6000000</ele>
<time>2007-09-12T22:58:22Z</time>
</trkpt>
<trkpt lat="51.3602260" lon="6.2807035">
<ele>49.6000000</ele>
<time>2007-09-12T22:58:39Z</time>
</trkpt>
<trkpt lat="51.3611680" lon="6.2816906">
<ele>49.6000000</ele>
<time>2007-09-12T22:58:58Z</time>
</trkpt>
<trkpt lat="51.3619420" lon="6.2826133">
<ele>44.8000000</ele>
<time>2007-09-12T22:59:15Z</time>
</trkpt>
<trkpt lat="51.3624150" lon="6.2834716">
<ele>44.8000000</ele>
<time>2007-09-12T22:59:27Z</time>
</trkpt>
<trkpt lat="51.3632740" lon="6.2846947">
<ele>44.8000000</ele>
<time>2007-09-12T22:59:47Z</time>
</trkpt>
<trkpt lat="51.3640020" lon="6.2858534">
<ele>43.4000000</ele>
<time>2007-09-12T23:00:05Z</time>
</trkpt>
<trkpt lat="51.3659970" lon="6.2874200">
<ele>44.8000000</ele>
<time>2007-09-12T23:00:44Z</time>
</trkpt>
<trkpt lat="51.3668140" lon="6.2889004">
<ele>45.3000000</ele>
<time>2007-09-12T23:01:05Z</time>
</trkpt>
<trkpt lat="51.3674130" lon="6.2899947">
<ele>44.8000000</ele>
<time>2007-09-12T23:01:21Z</time>
</trkpt>
<trkpt lat="51.3674770" lon="6.2905740">
<ele>44.4000000</ele>
<time>2007-09-12T23:01:28Z</time>
</trkpt>
<trkpt lat="51.3673480" lon="6.2908100">
<ele>44.4000000</ele>
<time>2007-09-12T23:01:31Z</time>
</trkpt>
<trkpt lat="51.3665540" lon="6.2917113">
<ele>44.4000000</ele>
<time>2007-09-12T23:01:48Z</time>
</trkpt>
<trkpt lat="51.3661900" lon="6.2920547">
<ele>42.9000000</ele>
<time>2007-09-12T23:01:55Z</time>
</trkpt>
<trkpt lat="51.3661040" lon="6.2926126">
<ele>41.0000000</ele>
<time>2007-09-12T23:02:02Z</time>
</trkpt>
<trkpt lat="51.3665120" lon="6.2938356">
<ele>42.0000000</ele>
<time>2007-09-12T23:02:17Z</time>
</trkpt>
<trkpt lat="51.3671150" lon="6.2954020">
<ele>41.0000000</ele>
<time>2007-09-12T23:02:37Z</time>
</trkpt>
<trkpt lat="51.3676070" lon="6.2966895">
<ele>42.9000000</ele>
<time>2007-09-12T23:02:53Z</time>
</trkpt>
<trkpt lat="51.3679500" lon="6.2978697">
<ele>40.5000000</ele>
<time>2007-09-12T23:03:07Z</time>
</trkpt>
<trkpt lat="51.3680570" lon="6.2989210">
<ele>33.3000000</ele>
<time>2007-09-12T23:03:19Z</time>
</trkpt>
<trkpt lat="51.3681640" lon="6.3003373">
<ele>34.3000000</ele>
<time>2007-09-12T23:03:34Z</time>
</trkpt>
<trkpt lat="51.3684000" lon="6.3021398">
<ele>31.4000000</ele>
<time>2007-09-12T23:03:54Z</time>
</trkpt>
<trkpt lat="51.3686800" lon="6.3038350">
<ele>31.9000000</ele>
<time>2007-09-12T23:04:13Z</time>
</trkpt>
<trkpt lat="51.3689160" lon="6.3053155">
<ele>34.3000000</ele>
<time>2007-09-12T23:04:30Z</time>
</trkpt>
<trkpt lat="51.3690450" lon="6.3061740">
<ele>35.2000000</ele>
<time>2007-09-12T23:04:39Z</time>
</trkpt>
<trkpt lat="51.3689160" lon="6.3064313">
<ele>36.2000000</ele>
<time>2007-09-12T23:04:43Z</time>
</trkpt>
<trkpt lat="51.3682700" lon="6.3069250">
<ele>38.6000000</ele>
<time>2007-09-12T23:04:56Z</time>
</trkpt>
<trkpt lat="51.3674130" lon="6.3075686">
<ele>38.6000000</ele>
<time>2007-09-12T23:05:12Z</time>
</trkpt>
<trkpt lat="51.3666000" lon="6.3081910">
<ele>37.6000000</ele>
<time>2007-09-12T23:05:28Z</time>
</trkpt>
<trkpt lat="51.3656120" lon="6.3089420">
<ele>35.7000000</ele>
<time>2007-09-12T23:05:47Z</time>
</trkpt>
<trkpt lat="51.3647300" lon="6.3096070">
<ele>37.6000000</ele>
<time>2007-09-12T23:06:04Z</time>
</trkpt>
<trkpt lat="51.3638730" lon="6.3102720">
<ele>35.7000000</ele>
<time>2007-09-12T23:06:20Z</time>
</trkpt>
<trkpt lat="51.3629500" lon="6.3109803">
<ele>31.9000000</ele>
<time>2007-09-12T23:06:38Z</time>
</trkpt>
<trkpt lat="51.3625220" lon="6.3113236">
<ele>30.4000000</ele>
<time>2007-09-12T23:06:46Z</time>
</trkpt>
<trkpt lat="51.3625870" lon="6.3116670">
<ele>30.4000000</ele>
<time>2007-09-12T23:06:50Z</time>
</trkpt>
<trkpt lat="51.3629950" lon="6.3128040">
<ele>28.0000000</ele>
<time>2007-09-12T23:07:05Z</time>
</trkpt>
<trkpt lat="51.3631670" lon="6.3132977">
<ele>28.0000000</ele>
<time>2007-09-12T23:07:11Z</time>
</trkpt>
<trkpt lat="51.3633160" lon="6.3141990">
<ele>28.5000000</ele>
<time>2007-09-12T23:07:21Z</time>
</trkpt>
<trkpt lat="51.3632100" lon="6.3143706">
<ele>29.9000000</ele>
<time>2007-09-12T23:07:23Z</time>
</trkpt>
<trkpt lat="51.3626500" lon="6.3148212">
<ele>29.5000000</ele>
<time>2007-09-12T23:07:34Z</time>
</trkpt>
<trkpt lat="51.3615760" lon="6.3155080">
<ele>29.9000000</ele>
<time>2007-09-12T23:07:54Z</time>
</trkpt>
<trkpt lat="51.3608700" lon="6.3158727">
<ele>29.9000000</ele>
<time>2007-09-12T23:08:07Z</time>
</trkpt>
<trkpt lat="51.3608300" lon="6.3161945">
<ele>30.9000000</ele>
<time>2007-09-12T23:08:11Z</time>
</trkpt>
<trkpt lat="51.3611900" lon="6.3175250">
<ele>29.9000000</ele>
<time>2007-09-12T23:08:27Z</time>
</trkpt>
<trkpt lat="51.3616000" lon="6.3189410">
<ele>30.4000000</ele>
<time>2007-09-12T23:08:44Z</time>
</trkpt>
<trkpt lat="51.3619840" lon="6.3202286">
<ele>30.9000000</ele>
<time>2007-09-12T23:08:59Z</time>
</trkpt>
<trkpt lat="51.3625870" lon="6.3209150">
<ele>30.4000000</ele>
<time>2007-09-12T23:09:12Z</time>
</trkpt>
<trkpt lat="51.3632100" lon="6.3216877">
<ele>30.4000000</ele>
<time>2007-09-12T23:09:26Z</time>
</trkpt>
<trkpt lat="51.3636360" lon="6.3226960">
<ele>30.4000000</ele>
<time>2007-09-12T23:09:39Z</time>
</trkpt>
<trkpt lat="51.3638950" lon="6.3246703">
<ele>30.9000000</ele>
<time>2007-09-12T23:10:01Z</time>
</trkpt>
<trkpt lat="51.3640900" lon="6.3252280">
<ele>30.9000000</ele>
<time>2007-09-12T23:10:08Z</time>
</trkpt>
<trkpt lat="51.3643460" lon="6.3263010">
<ele>29.5000000</ele>
<time>2007-09-12T23:10:20Z</time>
</trkpt>
<trkpt lat="51.3644520" lon="6.3265800">
<ele>29.0000000</ele>
<time>2007-09-12T23:10:24Z</time>
</trkpt>
<trkpt lat="51.3645170" lon="6.3267303">
<ele>29.0000000</ele>
<time>2007-09-12T23:10:26Z</time>
</trkpt>
<trkpt lat="51.3653530" lon="6.3290690">
<ele>28.5000000</ele>
<time>2007-09-12T23:10:55Z</time>
</trkpt>
<trkpt lat="51.3653760" lon="6.3292837">
<ele>28.5000000</ele>
<time>2007-09-12T23:10:58Z</time>
</trkpt>
<trkpt lat="51.3650740" lon="6.3295197">
<ele>28.0000000</ele>
<time>2007-09-12T23:11:03Z</time>
</trkpt>
<trkpt lat="51.3640250" lon="6.3303780">
<ele>27.5000000</ele>
<time>2007-09-12T23:11:24Z</time>
</trkpt>
<trkpt lat="51.3631440" lon="6.3308500">
<ele>27.1000000</ele>
<time>2007-09-12T23:11:40Z</time>
</trkpt>
<trkpt lat="51.3623100" lon="6.3312793">
<ele>26.6000000</ele>
<time>2007-09-12T23:11:55Z</time>
</trkpt>
<trkpt lat="51.3612980" lon="6.3318157">
<ele>27.5000000</ele>
<time>2007-09-12T23:12:14Z</time>
</trkpt>
<trkpt lat="51.3606340" lon="6.3320947">
<ele>28.0000000</ele>
<time>2007-09-12T23:12:26Z</time>
</trkpt>
<trkpt lat="51.3594100" lon="6.3326740">
<ele>27.5000000</ele>
<time>2007-09-12T23:12:48Z</time>
</trkpt>
<trkpt lat="51.3586800" lon="6.3326955">
<ele>27.1000000</ele>
<time>2007-09-12T23:13:01Z</time>
</trkpt>
<trkpt lat="51.3577580" lon="6.3325667">
<ele>29.0000000</ele>
<time>2007-09-12T23:13:17Z</time>
</trkpt>
<trkpt lat="51.3576740" lon="6.3325880">
<ele>29.0000000</ele>
<time>2007-09-12T23:13:18Z</time>
</trkpt>
<trkpt lat="51.3566860" lon="6.3331890">
<ele>29.0000000</ele>
<time>2007-09-12T23:13:37Z</time>
</trkpt>
<trkpt lat="51.3559100" lon="6.3337470">
<ele>29.0000000</ele>
<time>2007-09-12T23:13:52Z</time>
</trkpt>
<trkpt lat="51.3551830" lon="6.3343477">
<ele>29.9000000</ele>
<time>2007-09-12T23:14:06Z</time>
</trkpt>
<trkpt lat="51.3549270" lon="6.3343906">
<ele>30.4000000</ele>
<time>2007-09-12T23:14:10Z</time>
</trkpt>
<trkpt lat="51.3539600" lon="6.3342620">
<ele>29.9000000</ele>
<time>2007-09-12T23:14:27Z</time>
</trkpt>
<trkpt lat="51.3537670" lon="6.3342834">
<ele>30.4000000</ele>
<time>2007-09-12T23:14:31Z</time>
</trkpt>
<trkpt lat="51.3534000" lon="6.3343690">
<ele>30.9000000</ele>
<time>2007-09-12T23:14:37Z</time>
</trkpt>
<trkpt lat="51.3528860" lon="6.3345194">
<ele>30.9000000</ele>
<time>2007-09-12T23:14:46Z</time>
</trkpt>
<trkpt lat="51.3522220" lon="6.3343690">
<ele>29.9000000</ele>
<time>2007-09-12T23:14:58Z</time>
</trkpt>
<trkpt lat="51.3518140" lon="6.3343906">
<ele>30.9000000</ele>
<time>2007-09-12T23:15:05Z</time>
</trkpt>
<trkpt lat="51.3517070" lon="6.3345623">
<ele>30.4000000</ele>
<time>2007-09-12T23:15:07Z</time>
</trkpt>
<trkpt lat="51.3517500" lon="6.3346696">
<ele>30.4000000</ele>
<time>2007-09-12T23:15:09Z</time>
</trkpt>
<trkpt lat="51.3517900" lon="6.3351846">
<ele>29.9000000</ele>
<time>2007-09-12T23:15:14Z</time>
</trkpt>
<trkpt lat="51.3519630" lon="6.3362145">
<ele>28.0000000</ele>
<time>2007-09-12T23:15:26Z</time>
</trkpt>
<trkpt lat="51.3523300" lon="6.3370300">
<ele>27.5000000</ele>
<time>2007-09-12T23:15:37Z</time>
</trkpt>
<trkpt lat="51.3528200" lon="6.3377595">
<ele>28.0000000</ele>
<time>2007-09-12T23:15:49Z</time>
</trkpt>
<trkpt lat="51.3535540" lon="6.3384460">
<ele>28.5000000</ele>
<time>2007-09-12T23:16:03Z</time>
</trkpt>
<trkpt lat="51.3541100" lon="6.3388968">
<ele>29.0000000</ele>
<time>2007-09-12T23:16:14Z</time>
</trkpt>
<trkpt lat="51.3541950" lon="6.3390040">
<ele>29.5000000</ele>
<time>2007-09-12T23:16:16Z</time>
</trkpt>
<trkpt lat="51.3546680" lon="6.3402486">
<ele>28.0000000</ele>
<time>2007-09-12T23:16:32Z</time>
</trkpt>
<trkpt lat="51.3547550" lon="6.3410425">
<ele>28.0000000</ele>
<time>2007-09-12T23:16:41Z</time>
</trkpt>
<trkpt lat="51.3546030" lon="6.3411713">
<ele>27.5000000</ele>
<time>2007-09-12T23:16:44Z</time>
</trkpt>
<trkpt lat="51.3538500" lon="6.3406563">
<ele>29.0000000</ele>
<time>2007-09-12T23:16:58Z</time>
</trkpt>
<trkpt lat="51.3530160" lon="6.3404846">
<ele>29.5000000</ele>
<time>2007-09-12T23:17:13Z</time>
</trkpt>
<trkpt lat="51.3529320" lon="6.3404846">
<ele>29.0000000</ele>
<time>2007-09-12T23:17:14Z</time>
</trkpt>
<trkpt lat="51.3519440" lon="6.3407420">
<ele>29.5000000</ele>
<time>2007-09-12T23:17:32Z</time>
</trkpt>
<trkpt lat="51.3509800" lon="6.3410640">
<ele>30.4000000</ele>
<time>2007-09-12T23:17:49Z</time>
</trkpt>
<trkpt lat="51.3499900" lon="6.3413215">
<ele>30.4000000</ele>
<time>2007-09-12T23:18:06Z</time>
</trkpt>
<trkpt lat="51.3496900" lon="6.3414073">
<ele>30.4000000</ele>
<time>2007-09-12T23:18:11Z</time>
</trkpt>
<trkpt lat="51.3494760" lon="6.3412786">
<ele>30.9000000</ele>
<time>2007-09-12T23:18:15Z</time>
</trkpt>
<trkpt lat="51.3493270" lon="6.3411070">
<ele>30.9000000</ele>
<time>2007-09-12T23:18:19Z</time>
</trkpt>
<trkpt lat="51.3491740" lon="6.3407850">
<ele>30.4000000</ele>
<time>2007-09-12T23:18:23Z</time>
</trkpt>
<trkpt lat="51.3490030" lon="6.3406350">
<ele>30.4000000</ele>
<time>2007-09-12T23:18:26Z</time>
</trkpt>
<trkpt lat="51.3488960" lon="6.3406134">
<ele>29.9000000</ele>
<time>2007-09-12T23:18:28Z</time>
</trkpt>
<trkpt lat="51.3488730" lon="6.3406350">
<ele>29.9000000</ele>
<time>2007-09-12T23:18:29Z</time>
</trkpt>
<trkpt lat="51.3488960" lon="6.3405920">
<ele>34.7000000</ele>
<time>2007-09-12T23:18:30Z</time>
</trkpt>
<trkpt lat="51.3488540" lon="6.3405490">
<ele>52.5000000</ele>
<time>2007-09-12T23:18:31Z</time>
</trkpt>
<trkpt lat="51.3488120" lon="6.3405490">
<ele>35.7000000</ele>
<time>2007-09-12T23:18:32Z</time>
</trkpt>
<trkpt lat="51.3488730" lon="6.3405704">
<ele>36.7000000</ele>
<time>2007-09-12T23:18:33Z</time>
</trkpt>
<trkpt lat="51.3489380" lon="6.3406350">
<ele>35.7000000</ele>
<time>2007-09-12T23:18:34Z</time>
</trkpt>
<trkpt lat="51.3490900" lon="6.3406134">
<ele>36.7000000</ele>
<time>2007-09-12T23:18:37Z</time>
</trkpt>
<trkpt lat="51.3493040" lon="6.3411500">
<ele>37.1000000</ele>
<time>2007-09-12T23:18:44Z</time>
</trkpt>
<trkpt lat="51.3493460" lon="6.3413644">
<ele>35.7000000</ele>
<time>2007-09-12T23:18:46Z</time>
</trkpt>
<trkpt lat="51.3493270" lon="6.3414288">
<ele>35.7000000</ele>
<time>2007-09-12T23:18:47Z</time>
</trkpt>
<trkpt lat="51.3493040" lon="6.3414717">
<ele>35.2000000</ele>
<time>2007-09-12T23:18:48Z</time>
</trkpt>
<trkpt lat="51.3493460" lon="6.3416004">
<ele>35.7000000</ele>
<time>2007-09-12T23:18:49Z</time>
</trkpt>
<trkpt lat="51.3494950" lon="6.3416004">
<ele>36.7000000</ele>
<time>2007-09-12T23:18:52Z</time>
</trkpt>
<trkpt lat="51.3496060" lon="6.3415790">
<ele>38.1000000</ele>
<time>2007-09-12T23:18:54Z</time>
</trkpt>
<trkpt lat="51.3495400" lon="6.3419223">
<ele>37.6000000</ele>
<time>2007-09-12T23:18:58Z</time>
</trkpt>
<trkpt lat="51.3495600" lon="6.3425660">
<ele>38.1000000</ele>
<time>2007-09-12T23:19:05Z</time>
</trkpt>
<trkpt lat="51.3496250" lon="6.3438535">
<ele>38.1000000</ele>
<time>2007-09-12T23:19:19Z</time>
</trkpt>
<trkpt lat="51.3496670" lon="6.3456560">
<ele>41.0000000</ele>
<time>2007-09-12T23:19:39Z</time>
</trkpt>
<trkpt lat="51.3495830" lon="6.3468146">
<ele>40.5000000</ele>
<time>2007-09-12T23:19:51Z</time>
</trkpt>
<trkpt lat="51.3492620" lon="6.3482094">
<ele>36.7000000</ele>
<time>2007-09-12T23:20:07Z</time>
</trkpt>
<trkpt lat="51.3487470" lon="6.3494970">
<ele>36.7000000</ele>
<time>2007-09-12T23:20:24Z</time>
</trkpt>
<trkpt lat="51.3481860" lon="6.3504410">
<ele>36.7000000</ele>
<time>2007-09-12T23:20:38Z</time>
</trkpt>
<trkpt lat="51.3475000" lon="6.3512993">
<ele>36.7000000</ele>
<time>2007-09-12T23:20:53Z</time>
</trkpt>
<trkpt lat="51.3467060" lon="6.3519430">
<ele>35.2000000</ele>
<time>2007-09-12T23:21:09Z</time>
</trkpt>
<trkpt lat="51.3457640" lon="6.3525867">
<ele>38.1000000</ele>
<time>2007-09-12T23:21:27Z</time>
</trkpt>
<trkpt lat="51.3448640" lon="6.3532305">
<ele>37.6000000</ele>
<time>2007-09-12T23:21:44Z</time>
</trkpt>
<trkpt lat="51.3441730" lon="6.3537240">
<ele>37.1000000</ele>
<time>2007-09-12T23:21:57Z</time>
</trkpt>
<trkpt lat="51.3434450" lon="6.3542175">
<ele>37.1000000</ele>
<time>2007-09-12T23:22:11Z</time>
</trkpt>
<trkpt lat="51.3429700" lon="6.3545180">
<ele>37.1000000</ele>
<time>2007-09-12T23:22:20Z</time>
</trkpt>
<trkpt lat="51.3425200" lon="6.3548400">
<ele>36.7000000</ele>
<time>2007-09-12T23:22:28Z</time>
</trkpt>
<trkpt lat="51.3418580" lon="6.3553120">
<ele>36.2000000</ele>
<time>2007-09-12T23:22:41Z</time>
</trkpt>
<trkpt lat="51.3410640" lon="6.3558700">
<ele>35.7000000</ele>
<time>2007-09-12T23:22:56Z</time>
</trkpt>
<trkpt lat="51.3401200" lon="6.3564920">
<ele>35.7000000</ele>
<time>2007-09-12T23:23:14Z</time>
</trkpt>
<trkpt lat="51.3398400" lon="6.3566422">
<ele>36.2000000</ele>
<time>2007-09-12T23:23:19Z</time>
</trkpt>
<trkpt lat="51.3396700" lon="6.3568140">
<ele>35.7000000</ele>
<time>2007-09-12T23:23:22Z</time>
</trkpt>
<trkpt lat="51.3393480" lon="6.3568354">
<ele>35.7000000</ele>
<time>2007-09-12T23:23:28Z</time>
</trkpt>
<trkpt lat="51.3392600" lon="6.3567924">
<ele>35.7000000</ele>
<time>2007-09-12T23:23:29Z</time>
</trkpt>
<trkpt lat="51.3391760" lon="6.3567280">
<ele>35.2000000</ele>
<time>2007-09-12T23:23:31Z</time>
</trkpt>
<trkpt lat="51.3384670" lon="6.3565135">
<ele>34.3000000</ele>
<time>2007-09-12T23:23:44Z</time>
</trkpt>
<trkpt lat="51.3374600" lon="6.3563633">
<ele>36.7000000</ele>
<time>2007-09-12T23:24:01Z</time>
</trkpt>
<trkpt lat="51.3369200" lon="6.3564706">
<ele>37.1000000</ele>
<time>2007-09-12T23:24:11Z</time>
</trkpt>
<trkpt lat="51.3368150" lon="6.3567066">
<ele>37.6000000</ele>
<time>2007-09-12T23:24:14Z</time>
</trkpt>
<trkpt lat="51.3369030" lon="6.3570285">
<ele>37.6000000</ele>
<time>2007-09-12T23:24:18Z</time>
</trkpt>
<trkpt lat="51.3373530" lon="6.3579940">
<ele>37.6000000</ele>
<time>2007-09-12T23:24:31Z</time>
</trkpt>
<trkpt lat="51.3374180" lon="6.3582300">
<ele>37.6000000</ele>
<time>2007-09-12T23:24:34Z</time>
</trkpt>
<trkpt lat="51.3375900" lon="6.3590670">
<ele>38.1000000</ele>
<time>2007-09-12T23:24:43Z</time>
</trkpt>
<trkpt lat="51.3378260" lon="6.3598394">
<ele>35.2000000</ele>
<time>2007-09-12T23:24:53Z</time>
</trkpt>
<trkpt lat="51.3382760" lon="6.3611913">
<ele>34.3000000</ele>
<time>2007-09-12T23:25:09Z</time>
</trkpt>
<trkpt lat="51.3387260" lon="6.3626290">
<ele>33.8000000</ele>
<time>2007-09-12T23:25:27Z</time>
</trkpt>
<trkpt lat="51.3388330" lon="6.3629723">
<ele>32.8000000</ele>
<time>2007-09-12T23:25:31Z</time>
</trkpt>
<trkpt lat="51.3389800" lon="6.3631440">
<ele>33.3000000</ele>
<time>2007-09-12T23:25:34Z</time>
</trkpt>
<trkpt lat="51.3390270" lon="6.3632510">
<ele>33.3000000</ele>
<time>2007-09-12T23:25:35Z</time>
</trkpt>
<trkpt lat="51.3390900" lon="6.3634660">
<ele>33.3000000</ele>
<time>2007-09-12T23:25:38Z</time>
</trkpt>
<trkpt lat="51.3390050" lon="6.3635730">
<ele>32.8000000</ele>
<time>2007-09-12T23:25:40Z</time>
</trkpt>
<trkpt lat="51.3388750" lon="6.3637020">
<ele>32.8000000</ele>
<time>2007-09-12T23:25:43Z</time>
</trkpt>
<trkpt lat="51.3382530" lon="6.3643026">
<ele>33.3000000</ele>
<time>2007-09-12T23:25:55Z</time>
</trkpt>
<trkpt lat="51.3375000" lon="6.3649464">
<ele>34.3000000</ele>
<time>2007-09-12T23:26:10Z</time>
</trkpt>
<trkpt lat="51.3368380" lon="6.3655900">
<ele>34.3000000</ele>
<time>2007-09-12T23:26:24Z</time>
</trkpt>
<trkpt lat="51.3361700" lon="6.3661265">
<ele>34.3000000</ele>
<time>2007-09-12T23:26:37Z</time>
</trkpt>
<trkpt lat="51.3356130" lon="6.3666415">
<ele>33.3000000</ele>
<time>2007-09-12T23:26:48Z</time>
</trkpt>
<trkpt lat="51.3349700" lon="6.3672210">
<ele>32.3000000</ele>
<time>2007-09-12T23:27:01Z</time>
</trkpt>
<trkpt lat="51.3342200" lon="6.3679075">
<ele>32.3000000</ele>
<time>2007-09-12T23:27:16Z</time>
</trkpt>
<trkpt lat="51.3335100" lon="6.3685083">
<ele>31.9000000</ele>
<time>2007-09-12T23:27:30Z</time>
</trkpt>
<trkpt lat="51.3327370" lon="6.3690233">
<ele>32.3000000</ele>
<time>2007-09-12T23:27:44Z</time>
</trkpt>
<trkpt lat="51.3320960" lon="6.3694096">
<ele>31.9000000</ele>
<time>2007-09-12T23:27:56Z</time>
</trkpt>
<trkpt lat="51.3310430" lon="6.3698600">
<ele>31.9000000</ele>
<time>2007-09-12T23:28:15Z</time>
</trkpt>
<trkpt lat="51.3301850" lon="6.3701606">
<ele>32.3000000</ele>
<time>2007-09-12T23:28:30Z</time>
</trkpt>
<trkpt lat="51.3293700" lon="6.3704180">
<ele>32.3000000</ele>
<time>2007-09-12T23:28:45Z</time>
</trkpt>
<trkpt lat="51.3285330" lon="6.3706326">
<ele>31.9000000</ele>
<time>2007-09-12T23:29:00Z</time>
</trkpt>
<trkpt lat="51.3278240" lon="6.3707830">
<ele>32.3000000</ele>
<time>2007-09-12T23:29:12Z</time>
</trkpt>
<trkpt lat="51.3273100" lon="6.3709116">
<ele>33.3000000</ele>
<time>2007-09-12T23:29:21Z</time>
</trkpt>
<trkpt lat="51.3273740" lon="6.3708687">
<ele>31.9000000</ele>
<time>2007-09-12T23:29:22Z</time>
</trkpt>
<trkpt lat="51.3273100" lon="6.3709330">
<ele>31.9000000</ele>
<time>2007-09-12T23:29:24Z</time>
</trkpt>
<trkpt lat="51.3268360" lon="6.3710403">
<ele>31.9000000</ele>
<time>2007-09-12T23:29:32Z</time>
</trkpt>
<trkpt lat="51.3257000" lon="6.3713620">
<ele>33.8000000</ele>
<time>2007-09-12T23:29:52Z</time>
</trkpt>
<trkpt lat="51.3247570" lon="6.3715982">
<ele>30.4000000</ele>
<time>2007-09-12T23:30:09Z</time>
</trkpt>
<trkpt lat="51.3238560" lon="6.3718343">
<ele>30.9000000</ele>
<time>2007-09-12T23:30:25Z</time>
</trkpt>
<trkpt lat="51.3228260" lon="6.3721130">
<ele>32.3000000</ele>
<time>2007-09-12T23:30:43Z</time>
</trkpt>
<trkpt lat="51.3222660" lon="6.3722420">
<ele>33.8000000</ele>
<time>2007-09-12T23:30:53Z</time>
</trkpt>
<trkpt lat="51.3217960" lon="6.3723920">
<ele>35.7000000</ele>
<time>2007-09-12T23:31:01Z</time>
</trkpt>
<trkpt lat="51.3210450" lon="6.3726280">
<ele>36.2000000</ele>
<time>2007-09-12T23:31:14Z</time>
</trkpt>
<trkpt lat="51.3202700" lon="6.3728213">
<ele>36.2000000</ele>
<time>2007-09-12T23:31:28Z</time>
</trkpt>
<trkpt lat="51.3194350" lon="6.3730360">
<ele>35.7000000</ele>
<time>2007-09-12T23:31:43Z</time>
</trkpt>
<trkpt lat="51.3193930" lon="6.3732505">
<ele>35.2000000</ele>
<time>2007-09-12T23:31:45Z</time>
</trkpt>
<trkpt lat="51.3194120" lon="6.3734007">
<ele>34.7000000</ele>
<time>2007-09-12T23:31:47Z</time>
</trkpt>
<trkpt lat="51.3195200" lon="6.3747096">
<ele>32.8000000</ele>
<time>2007-09-12T23:32:01Z</time>
</trkpt>
<trkpt lat="51.3195420" lon="6.3748600">
<ele>32.3000000</ele>
<time>2007-09-12T23:32:03Z</time>
</trkpt>
<trkpt lat="51.3195650" lon="6.3750100">
<ele>31.4000000</ele>
<time>2007-09-12T23:32:04Z</time>
</trkpt>
<trkpt lat="51.3196500" lon="6.3752460">
<ele>30.4000000</ele>
<time>2007-09-12T23:32:07Z</time>
</trkpt>
<trkpt lat="51.3196900" lon="6.3753320">
<ele>30.4000000</ele>
<time>2007-09-12T23:32:09Z</time>
</trkpt>
<trkpt lat="51.3203350" lon="6.3750530">
<ele>31.4000000</ele>
<time>2007-09-12T23:32:20Z</time>
</trkpt>
<trkpt lat="51.3211100" lon="6.3746450">
<ele>31.4000000</ele>
<time>2007-09-12T23:32:34Z</time>
</trkpt>
<trkpt lat="51.3212360" lon="6.3749027">
<ele>32.3000000</ele>
<time>2007-09-12T23:32:38Z</time>
</trkpt>
<trkpt lat="51.3215800" lon="6.3762546">
<ele>34.7000000</ele>
<time>2007-09-12T23:32:54Z</time>
</trkpt>
<trkpt lat="51.3216250" lon="6.3775206">
<ele>36.2000000</ele>
<time>2007-09-12T23:33:08Z</time>
</trkpt>
<trkpt lat="51.3214950" lon="6.3775420">
<ele>36.2000000</ele>
<time>2007-09-12T23:33:11Z</time>
</trkpt>
<trkpt lat="51.3211700" lon="6.3772200">
<ele>35.2000000</ele>
<time>2007-09-12T23:33:17Z</time>
</trkpt>
<trkpt lat="51.3209400" lon="6.3771343">
<ele>35.7000000</ele>
<time>2007-09-12T23:33:21Z</time>
</trkpt>
<trkpt lat="51.3205300" lon="6.3774347">
<ele>35.2000000</ele>
<time>2007-09-12T23:33:29Z</time>
</trkpt>
<trkpt lat="51.3199500" lon="6.3776280">
<ele>35.7000000</ele>
<time>2007-09-12T23:33:40Z</time>
</trkpt>
<trkpt lat="51.3191760" lon="6.3778853">
<ele>34.7000000</ele>
<time>2007-09-12T23:33:53Z</time>
</trkpt>
<trkpt lat="51.3190040" lon="6.3778853">
<ele>34.7000000</ele>
<time>2007-09-12T23:33:56Z</time>
</trkpt>
<trkpt lat="51.3186000" lon="6.3777350">
<ele>34.7000000</ele>
<time>2007-09-12T23:34:03Z</time>
</trkpt>
<trkpt lat="51.3184900" lon="6.3777137">
<ele>34.3000000</ele>
<time>2007-09-12T23:34:05Z</time>
</trkpt>
<trkpt lat="51.3183400" lon="6.3776280">
<ele>34.3000000</ele>
<time>2007-09-12T23:34:08Z</time>
</trkpt>
<trkpt lat="51.3177830" lon="6.3766837">
<ele>35.2000000</ele>
<time>2007-09-12T23:34:22Z</time>
</trkpt>
<trkpt lat="51.3175900" lon="6.3763833">
<ele>35.7000000</ele>
<time>2007-09-12T23:34:27Z</time>
</trkpt>
<trkpt lat="51.3173980" lon="6.3763620">
<ele>35.2000000</ele>
<time>2007-09-12T23:34:30Z</time>
</trkpt>
<trkpt lat="51.3166470" lon="6.3768340">
<ele>34.7000000</ele>
<time>2007-09-12T23:34:44Z</time>
</trkpt>
<trkpt lat="51.3163700" lon="6.3769840">
<ele>34.3000000</ele>
<time>2007-09-12T23:34:49Z</time>
</trkpt>
<trkpt lat="51.3161740" lon="6.3768983">
<ele>34.3000000</ele>
<time>2007-09-12T23:34:53Z</time>
</trkpt>
<trkpt lat="51.3157230" lon="6.3758900">
<ele>34.3000000</ele>
<time>2007-09-12T23:35:07Z</time>
</trkpt>
<trkpt lat="51.3156600" lon="6.3757610">
<ele>33.8000000</ele>
<time>2007-09-12T23:35:08Z</time>
</trkpt>
<trkpt lat="51.3153340" lon="6.3755680">
<ele>32.8000000</ele>
<time>2007-09-12T23:35:14Z</time>
</trkpt>
<trkpt lat="51.3152280" lon="6.3755894">
<ele>33.3000000</ele>
<time>2007-09-12T23:35:16Z</time>
</trkpt>
<trkpt lat="51.3144570" lon="6.3761687">
<ele>32.8000000</ele>
<time>2007-09-12T23:35:31Z</time>
</trkpt>
<trkpt lat="51.3134040" lon="6.3770056">
<ele>32.8000000</ele>
<time>2007-09-12T23:35:51Z</time>
</trkpt>
<trkpt lat="51.3133200" lon="6.3770700">
<ele>32.8000000</ele>
<time>2007-09-12T23:35:53Z</time>
</trkpt>
<trkpt lat="51.3131900" lon="6.3771560">
<ele>33.3000000</ele>
<time>2007-09-12T23:35:56Z</time>
</trkpt>
<trkpt lat="51.3130400" lon="6.3769627">
<ele>33.8000000</ele>
<time>2007-09-12T23:35:59Z</time>
</trkpt>
<trkpt lat="51.3123320" lon="6.3758254">
<ele>34.3000000</ele>
<time>2007-09-12T23:36:16Z</time>
</trkpt>
<trkpt lat="51.3117520" lon="6.3748813">
<ele>34.7000000</ele>
<time>2007-09-12T23:36:31Z</time>
</trkpt>
<trkpt lat="51.3109360" lon="6.3735294">
<ele>34.7000000</ele>
<time>2007-09-12T23:36:51Z</time>
</trkpt>
<trkpt lat="51.3101650" lon="6.3722850">
<ele>36.2000000</ele>
<time>2007-09-12T23:37:10Z</time>
</trkpt>
<trkpt lat="51.3094370" lon="6.3711047">
<ele>36.2000000</ele>
<time>2007-09-12T23:37:28Z</time>
</trkpt>
<trkpt lat="51.3089870" lon="6.3702893">
<ele>34.7000000</ele>
<time>2007-09-12T23:37:40Z</time>
</trkpt>
<trkpt lat="51.3081700" lon="6.3689804">
<ele>33.8000000</ele>
<time>2007-09-12T23:38:00Z</time>
</trkpt>
<trkpt lat="51.3073960" lon="6.3677573">
<ele>33.8000000</ele>
<time>2007-09-12T23:38:19Z</time>
</trkpt>
<trkpt lat="51.3059400" lon="6.3654184">
<ele>33.3000000</ele>
<time>2007-09-12T23:38:55Z</time>
</trkpt>
<trkpt lat="51.3057020" lon="6.3650107">
<ele>33.3000000</ele>
<time>2007-09-12T23:39:01Z</time>
</trkpt>
<trkpt lat="51.3055300" lon="6.3651395">
<ele>31.9000000</ele>
<time>2007-09-12T23:39:04Z</time>
</trkpt>
<trkpt lat="51.3051450" lon="6.3660192">
<ele>32.3000000</ele>
<time>2007-09-12T23:39:16Z</time>
</trkpt>
<trkpt lat="51.3048200" lon="6.3662124">
<ele>32.8000000</ele>
<time>2007-09-12T23:39:22Z</time>
</trkpt>
<trkpt lat="51.3038140" lon="6.3664484">
<ele>33.8000000</ele>
<time>2007-09-12T23:39:40Z</time>
</trkpt>
<trkpt lat="51.3028500" lon="6.3667490">
<ele>34.7000000</ele>
<time>2007-09-12T23:39:57Z</time>
</trkpt>
<trkpt lat="51.3021620" lon="6.3671565">
<ele>35.2000000</ele>
<time>2007-09-12T23:40:10Z</time>
</trkpt>
<trkpt lat="51.3021160" lon="6.3671780">
<ele>35.2000000</ele>
<time>2007-09-12T23:40:11Z</time>
</trkpt>
<trkpt lat="51.3019450" lon="6.3670920">
<ele>35.2000000</ele>
<time>2007-09-12T23:40:14Z</time>
</trkpt>
<trkpt lat="51.3013040" lon="6.3662124">
<ele>34.3000000</ele>
<time>2007-09-12T23:40:28Z</time>
</trkpt>
<trkpt lat="51.3006820" lon="6.3649035">
<ele>34.3000000</ele>
<time>2007-09-12T23:40:46Z</time>
</trkpt>
<trkpt lat="51.3002500" lon="6.3636374">
<ele>35.2000000</ele>
<time>2007-09-12T23:41:02Z</time>
</trkpt>
<trkpt lat="51.2998430" lon="6.3624144">
<ele>36.2000000</ele>
<time>2007-09-12T23:41:17Z</time>
</trkpt>
<trkpt lat="51.2996060" lon="6.3612127">
<ele>38.6000000</ele>
<time>2007-09-12T23:41:31Z</time>
</trkpt>
<trkpt lat="51.2994800" lon="6.3607620">
<ele>38.6000000</ele>
<time>2007-09-12T23:41:36Z</time>
</trkpt>
<trkpt lat="51.2988550" lon="6.3599467">
<ele>36.2000000</ele>
<time>2007-09-12T23:41:50Z</time>
</trkpt>
<trkpt lat="51.2985760" lon="6.3596250">
<ele>35.7000000</ele>
<time>2007-09-12T23:41:56Z</time>
</trkpt>
<trkpt lat="51.2986870" lon="6.3594960">
<ele>35.7000000</ele>
<time>2007-09-12T23:41:59Z</time>
</trkpt>
<trkpt lat="51.2988550" lon="6.3593890">
<ele>36.7000000</ele>
<time>2007-09-12T23:42:02Z</time>
</trkpt>
<trkpt lat="51.2989650" lon="6.3592170">
<ele>36.7000000</ele>
<time>2007-09-12T23:42:04Z</time>
</trkpt>
<trkpt lat="51.2990500" lon="6.3588310">
<ele>36.7000000</ele>
<time>2007-09-12T23:42:09Z</time>
</trkpt>
<trkpt lat="51.2989650" lon="6.3571570">
<ele>38.1000000</ele>
<time>2007-09-12T23:42:27Z</time>
</trkpt>
<trkpt lat="51.2988780" lon="6.3557625">
<ele>38.6000000</ele>
<time>2007-09-12T23:42:42Z</time>
</trkpt>
<trkpt lat="51.2987480" lon="6.3543463">
<ele>42.0000000</ele>
<time>2007-09-12T23:42:58Z</time>
</trkpt>
<trkpt lat="51.2985760" lon="6.3529086">
<ele>42.9000000</ele>
<time>2007-09-12T23:43:14Z</time>
</trkpt>
<trkpt lat="51.2984050" lon="6.3513850">
<ele>44.8000000</ele>
<time>2007-09-12T23:43:31Z</time>
</trkpt>
<trkpt lat="51.2983440" lon="6.3507414">
<ele>45.8000000</ele>
<time>2007-09-12T23:43:38Z</time>
</trkpt>
<trkpt lat="51.2984050" lon="6.3503980">
<ele>46.3000000</ele>
<time>2007-09-12T23:43:42Z</time>
</trkpt>
<trkpt lat="51.2986000" lon="6.3492610">
<ele>45.3000000</ele>
<time>2007-09-12T23:43:55Z</time>
</trkpt>
<trkpt lat="51.2986220" lon="6.3491106">
<ele>45.3000000</ele>
<time>2007-09-12T23:43:56Z</time>
</trkpt>
<trkpt lat="51.2985760" lon="6.3487030">
<ele>45.8000000</ele>
<time>2007-09-12T23:44:01Z</time>
</trkpt>
<trkpt lat="51.2981260" lon="6.3473510">
<ele>49.2000000</ele>
<time>2007-09-12T23:44:17Z</time>
</trkpt>
<trkpt lat="51.2977400" lon="6.3461494">
<ele>51.1000000</ele>
<time>2007-09-12T23:44:32Z</time>
</trkpt>
<trkpt lat="51.2978480" lon="6.3459134">
<ele>50.6000000</ele>
<time>2007-09-12T23:44:35Z</time>
</trkpt>
<trkpt lat="51.2985340" lon="6.3453340">
<ele>50.1000000</ele>
<time>2007-09-12T23:44:49Z</time>
</trkpt>
<trkpt lat="51.2991140" lon="6.3448620">
<ele>51.1000000</ele>
<time>2007-09-12T23:45:00Z</time>
</trkpt>
<trkpt lat="51.2998000" lon="6.3443040">
<ele>52.0000000</ele>
<time>2007-09-12T23:45:14Z</time>
</trkpt>
<trkpt lat="51.2998660" lon="6.3440680">
<ele>52.5000000</ele>
<time>2007-09-12T23:45:17Z</time>
</trkpt>
<trkpt lat="51.2995640" lon="6.3431454">
<ele>55.4000000</ele>
<time>2007-09-12T23:45:28Z</time>
</trkpt>
<trkpt lat="51.2994800" lon="6.3429093">
<ele>56.9000000</ele>
<time>2007-09-12T23:45:31Z</time>
</trkpt>
<trkpt lat="51.2993280" lon="6.3425230">
<ele>58.3000000</ele>
<time>2007-09-12T23:45:36Z</time>
</trkpt>
<trkpt lat="51.2990300" lon="6.3416433">
<ele>62.1000000</ele>
<time>2007-09-12T23:45:47Z</time>
</trkpt>
<trkpt lat="51.2987300" lon="6.3407636">
<ele>64.5000000</ele>
<time>2007-09-12T23:45:58Z</time>
</trkpt>
<trkpt lat="51.2984920" lon="6.3401200">
<ele>67.4000000</ele>
<time>2007-09-12T23:46:06Z</time>
</trkpt>
<trkpt lat="51.2982800" lon="6.3394330">
<ele>70.3000000</ele>
<time>2007-09-12T23:46:14Z</time>
</trkpt>
<trkpt lat="51.2980600" lon="6.3388540">
<ele>74.2000000</ele>
<time>2007-09-12T23:46:22Z</time>
</trkpt>
<trkpt lat="51.2979130" lon="6.3384247">
<ele>77.0000000</ele>
<time>2007-09-12T23:46:27Z</time>
</trkpt>
<trkpt lat="51.2977000" lon="6.3378024">
<ele>79.4000000</ele>
<time>2007-09-12T23:46:35Z</time>
</trkpt>
<trkpt lat="51.2974400" lon="6.3370943">
<ele>81.4000000</ele>
<time>2007-09-12T23:46:44Z</time>
</trkpt>
<trkpt lat="51.2972260" lon="6.3366220">
<ele>80.9000000</ele>
<time>2007-09-12T23:46:50Z</time>
</trkpt>
<trkpt lat="51.2970300" lon="6.3359356">
<ele>79.9000000</ele>
<time>2007-09-12T23:46:58Z</time>
</trkpt>
<trkpt lat="51.2969900" lon="6.3358500">
<ele>80.4000000</ele>
<time>2007-09-12T23:46:59Z</time>
</trkpt>
<trkpt lat="51.2970120" lon="6.3359140">
<ele>87.1000000</ele>
<time>2007-09-12T23:47:00Z</time>
</trkpt>
<trkpt lat="51.2967530" lon="6.3361500">
<ele>85.2000000</ele>
<time>2007-09-12T23:47:05Z</time>
</trkpt>
<trkpt lat="51.2961540" lon="6.3367080">
<ele>79.9000000</ele>
<time>2007-09-12T23:47:17Z</time>
</trkpt>
<trkpt lat="51.2957040" lon="6.3370943">
<ele>75.1000000</ele>
<time>2007-09-12T23:47:26Z</time>
</trkpt>
<trkpt lat="51.2956800" lon="6.3370943">
<ele>75.6000000</ele>
<time>2007-09-12T23:47:27Z</time>
</trkpt>
<trkpt lat="51.2956400" lon="6.3370300">
<ele>76.6000000</ele>
<time>2007-09-12T23:47:28Z</time>
</trkpt>
<trkpt lat="51.2953800" lon="6.3363860">
<ele>77.5000000</ele>
<time>2007-09-12T23:47:36Z</time>
</trkpt>
<trkpt lat="51.2952730" lon="6.3361716">
<ele>79.4000000</ele>
<time>2007-09-12T23:47:39Z</time>
</trkpt>
<trkpt lat="51.2950600" lon="6.3356566">
<ele>79.9000000</ele>
<time>2007-09-12T23:47:46Z</time>
</trkpt>
<trkpt lat="51.2948230" lon="6.3349056">
<ele>81.4000000</ele>
<time>2007-09-12T23:47:55Z</time>
</trkpt>
<trkpt lat="51.2945200" lon="6.3340473">
<ele>80.9000000</ele>
<time>2007-09-12T23:48:06Z</time>
</trkpt>
<trkpt lat="51.2942240" lon="6.3332320">
<ele>81.4000000</ele>
<time>2007-09-12T23:48:16Z</time>
</trkpt>
<trkpt lat="51.2941360" lon="6.3330173">
<ele>84.7000000</ele>
<time>2007-09-12T23:48:19Z</time>
</trkpt>
<trkpt lat="51.2938350" lon="6.3322020">
<ele>85.2000000</ele>
<time>2007-09-12T23:48:29Z</time>
</trkpt>
<trkpt lat="51.2937500" lon="6.3321805">
<ele>85.2000000</ele>
<time>2007-09-12T23:48:31Z</time>
</trkpt>
<trkpt lat="51.2935800" lon="6.3323092">
<ele>85.2000000</ele>
<time>2007-09-12T23:48:34Z</time>
</trkpt>
<trkpt lat="51.2933430" lon="6.3324380">
<ele>83.8000000</ele>
<time>2007-09-12T23:48:38Z</time>
</trkpt>
<trkpt lat="51.2931060" lon="6.3320947">
<ele>69.4000000</ele>
<time>2007-09-12T23:48:44Z</time>
</trkpt>
<trkpt lat="51.2930000" lon="6.3323950">
<ele>72.7000000</ele>
<time>2007-09-12T23:48:48Z</time>
</trkpt>
<trkpt lat="51.2928280" lon="6.3329960">
<ele>69.8000000</ele>
<time>2007-09-12T23:48:55Z</time>
</trkpt>
<trkpt lat="51.2926330" lon="6.3335752">
<ele>69.4000000</ele>
<time>2007-09-12T23:49:02Z</time>
</trkpt>
<trkpt lat="51.2924420" lon="6.3335110">
<ele>68.4000000</ele>
<time>2007-09-12T23:49:05Z</time>
</trkpt>
<trkpt lat="51.2922900" lon="6.3333820">
<ele>68.4000000</ele>
<time>2007-09-12T23:49:08Z</time>
</trkpt>
<trkpt lat="51.2921000" lon="6.3332534">
<ele>68.4000000</ele>
<time>2007-09-12T23:49:12Z</time>
</trkpt>
<trkpt lat="51.2919270" lon="6.3336396">
<ele>69.4000000</ele>
<time>2007-09-12T23:49:17Z</time>
</trkpt>
<trkpt lat="51.2917980" lon="6.3337900">
<ele>71.3000000</ele>
<time>2007-09-12T23:49:20Z</time>
</trkpt>
<trkpt lat="51.2917560" lon="6.3338113">
<ele>70.8000000</ele>
<time>2007-09-12T23:49:21Z</time>
</trkpt>
<trkpt lat="51.2916900" lon="6.3338327">
<ele>72.2000000</ele>
<time>2007-09-12T23:49:22Z</time>
</trkpt>
<trkpt lat="51.2915840" lon="6.3338757">
<ele>72.7000000</ele>
<time>2007-09-12T23:49:24Z</time>
</trkpt>
<trkpt lat="51.2913670" lon="6.3339615">
<ele>74.2000000</ele>
<time>2007-09-12T23:49:28Z</time>
</trkpt>
<trkpt lat="51.2911340" lon="6.3340690">
<ele>76.6000000</ele>
<time>2007-09-12T23:49:32Z</time>
</trkpt>
<trkpt lat="51.2909160" lon="6.3344550">
<ele>77.0000000</ele>
<time>2007-09-12T23:49:37Z</time>
</trkpt>
<trkpt lat="51.2906800" lon="6.3349700">
<ele>78.5000000</ele>
<time>2007-09-12T23:49:44Z</time>
</trkpt>
<trkpt lat="51.2904430" lon="6.3355280">
<ele>79.4000000</ele>
<time>2007-09-12T23:49:52Z</time>
</trkpt>
<trkpt lat="51.2902100" lon="6.3360860">
<ele>81.8000000</ele>
<time>2007-09-12T23:49:59Z</time>
</trkpt>
<trkpt lat="51.2899500" lon="6.3366220">
<ele>82.3000000</ele>
<time>2007-09-12T23:50:06Z</time>
</trkpt>
<trkpt lat="51.2895660" lon="6.3372874">
<ele>81.4000000</ele>
<time>2007-09-12T23:50:16Z</time>
</trkpt>
<trkpt lat="51.2891800" lon="6.3380384">
<ele>78.0000000</ele>
<time>2007-09-12T23:50:27Z</time>
</trkpt>
<trkpt lat="51.2886200" lon="6.3393690">
<ele>75.1000000</ele>
<time>2007-09-12T23:50:44Z</time>
</trkpt>
<trkpt lat="51.2884700" lon="6.3399480">
<ele>75.1000000</ele>
<time>2007-09-12T23:50:51Z</time>
</trkpt>
<trkpt lat="51.2884940" lon="6.3410425">
<ele>77.5000000</ele>
<time>2007-09-12T23:51:03Z</time>
</trkpt>
<trkpt lat="51.2887900" lon="6.3417290">
<ele>79.0000000</ele>
<time>2007-09-12T23:51:12Z</time>
</trkpt>
<trkpt lat="51.2890700" lon="6.3424160">
<ele>78.0000000</ele>
<time>2007-09-12T23:51:21Z</time>
</trkpt>
<trkpt lat="51.2890100" lon="6.3428880">
<ele>77.0000000</ele>
<time>2007-09-12T23:51:26Z</time>
</trkpt>
<trkpt lat="51.2886000" lon="6.3438106">
<ele>76.6000000</ele>
<time>2007-09-12T23:51:39Z</time>
</trkpt>
<trkpt lat="51.2880000" lon="6.3449264">
<ele>79.9000000</ele>
<time>2007-09-12T23:51:55Z</time>
</trkpt>
<trkpt lat="51.2872280" lon="6.3458490">
<ele>79.4000000</ele>
<time>2007-09-12T23:52:11Z</time>
</trkpt>
<trkpt lat="51.2871400" lon="6.3459350">
<ele>78.5000000</ele>
<time>2007-09-12T23:52:13Z</time>
</trkpt>
<trkpt lat="51.2871400" lon="6.3463640">
<ele>79.0000000</ele>
<time>2007-09-12T23:52:18Z</time>
</trkpt>
<trkpt lat="51.2870750" lon="6.3466860">
<ele>79.0000000</ele>
<time>2007-09-12T23:52:22Z</time>
</trkpt>
<trkpt lat="51.2871630" lon="6.3469650">
<ele>79.0000000</ele>
<time>2007-09-12T23:52:25Z</time>
</trkpt>
<trkpt lat="51.2872700" lon="6.3471150">
<ele>79.0000000</ele>
<time>2007-09-12T23:52:27Z</time>
</trkpt>
<trkpt lat="51.2872280" lon="6.3470936">
<ele>79.0000000</ele>
<time>2007-09-12T23:52:28Z</time>
</trkpt>
<trkpt lat="51.2870750" lon="6.3471794">
<ele>78.0000000</ele>
<time>2007-09-12T23:52:31Z</time>
</trkpt>
<trkpt lat="51.2871860" lon="6.3473080">
<ele>80.4000000</ele>
<time>2007-09-12T23:52:33Z</time>
</trkpt>
<trkpt lat="51.2872280" lon="6.3475227">
<ele>81.4000000</ele>
<time>2007-09-12T23:52:36Z</time>
</trkpt>
<trkpt lat="51.2874200" lon="6.3478660">
<ele>81.4000000</ele>
<time>2007-09-12T23:52:41Z</time>
</trkpt>
<trkpt lat="51.2874400" lon="6.3488100">
<ele>81.8000000</ele>
<time>2007-09-12T23:52:51Z</time>
</trkpt>
<trkpt lat="51.2874400" lon="6.3490250">
<ele>80.4000000</ele>
<time>2007-09-12T23:52:54Z</time>
</trkpt>
<trkpt lat="51.2874400" lon="6.3496256">
<ele>79.4000000</ele>
<time>2007-09-12T23:53:00Z</time>
</trkpt>
<trkpt lat="51.2877600" lon="6.3515570">
<ele>79.0000000</ele>
<time>2007-09-12T23:53:22Z</time>
</trkpt>
<trkpt lat="51.2885780" lon="6.3529730">
<ele>79.0000000</ele>
<time>2007-09-12T23:53:43Z</time>
</trkpt>
<trkpt lat="51.2889440" lon="6.3529086">
<ele>79.0000000</ele>
<time>2007-09-12T23:53:49Z</time>
</trkpt>
<trkpt lat="51.2892650" lon="6.3529944">
<ele>79.0000000</ele>
<time>2007-09-12T23:53:55Z</time>
</trkpt>
<trkpt lat="51.2888800" lon="6.3532090">
<ele>78.5000000</ele>
<time>2007-09-12T23:54:02Z</time>
</trkpt>
<trkpt lat="51.2887900" lon="6.3534236">
<ele>78.5000000</ele>
<time>2007-09-12T23:54:05Z</time>
</trkpt>
<trkpt lat="51.2881280" lon="6.3540673">
<ele>75.6000000</ele>
<time>2007-09-12T23:54:18Z</time>
</trkpt>
<trkpt lat="51.2873100" lon="6.3547754">
<ele>71.8000000</ele>
<time>2007-09-12T23:54:34Z</time>
</trkpt>
<trkpt lat="51.2865830" lon="6.3553120">
<ele>67.9000000</ele>
<time>2007-09-12T23:54:48Z</time>
</trkpt>
<trkpt lat="51.2857250" lon="6.3556337">
<ele>65.0000000</ele>
<time>2007-09-12T23:55:04Z</time>
</trkpt>
<trkpt lat="51.2850150" lon="6.3559340">
<ele>64.1000000</ele>
<time>2007-09-12T23:55:17Z</time>
</trkpt>
<trkpt lat="51.2841380" lon="6.3562130">
<ele>64.5000000</ele>
<time>2007-09-12T23:55:32Z</time>
</trkpt>
<trkpt lat="51.2823750" lon="6.3567710">
<ele>65.0000000</ele>
<time>2007-09-12T23:56:03Z</time>
</trkpt>
<trkpt lat="51.2816930" lon="6.3569427">
<ele>67.4000000</ele>
<time>2007-09-12T23:56:15Z</time>
</trkpt>
<trkpt lat="51.2808340" lon="6.3573503">
<ele>66.5000000</ele>
<time>2007-09-12T23:56:31Z</time>
</trkpt>
<trkpt lat="51.2800370" lon="6.3577366">
<ele>66.0000000</ele>
<time>2007-09-12T23:56:45Z</time>
</trkpt>
<trkpt lat="51.2798460" lon="6.3578653">
<ele>65.5000000</ele>
<time>2007-09-12T23:56:49Z</time>
</trkpt>
<trkpt lat="51.2801670" lon="6.3594960">
<ele>65.0000000</ele>
<time>2007-09-12T23:57:08Z</time>
</trkpt>
<trkpt lat="51.2807240" lon="6.3616850">
<ele>65.0000000</ele>
<time>2007-09-12T23:57:33Z</time>
</trkpt>
<trkpt lat="51.2808760" lon="6.3623500">
<ele>64.5000000</ele>
<time>2007-09-12T23:57:41Z</time>
</trkpt>
<trkpt lat="51.2805980" lon="6.3625430">
<ele>64.1000000</ele>
<time>2007-09-12T23:57:46Z</time>
</trkpt>
<trkpt lat="51.2801670" lon="6.3625430">
<ele>63.1000000</ele>
<time>2007-09-12T23:57:54Z</time>
</trkpt>
<trkpt lat="51.2793100" lon="6.3623285">
<ele>61.7000000</ele>
<time>2007-09-12T23:58:09Z</time>
</trkpt>
<trkpt lat="51.2784920" lon="6.3621570">
<ele>60.7000000</ele>
<time>2007-09-12T23:58:23Z</time>
</trkpt>
<trkpt lat="51.2783850" lon="6.3622000">
<ele>60.7000000</ele>
<time>2007-09-12T23:58:25Z</time>
</trkpt>
<trkpt lat="51.2783000" lon="6.3623285">
<ele>60.7000000</ele>
<time>2007-09-12T23:58:27Z</time>
</trkpt>
<trkpt lat="51.2778300" lon="6.3637233">
<ele>59.3000000</ele>
<time>2007-09-12T23:58:45Z</time>
</trkpt>
<trkpt lat="51.2774000" lon="6.3651824">
<ele>57.3000000</ele>
<time>2007-09-12T23:59:02Z</time>
</trkpt>
<trkpt lat="51.2772900" lon="6.3652897">
<ele>56.4000000</ele>
<time>2007-09-12T23:59:04Z</time>
</trkpt>
<trkpt lat="51.2772700" lon="6.3652253">
<ele>55.9000000</ele>
<time>2007-09-12T23:59:05Z</time>
</trkpt>
<trkpt lat="51.2768200" lon="6.3646030">
<ele>54.9000000</ele>
<time>2007-09-12T23:59:15Z</time>
</trkpt>
<trkpt lat="51.2761340" lon="6.3637233">
<ele>57.3000000</ele>
<time>2007-09-12T23:59:31Z</time>
</trkpt>
<trkpt lat="51.2759400" lon="6.3637877">
<ele>54.5000000</ele>
<time>2007-09-12T23:59:34Z</time>
</trkpt>
<trkpt lat="51.2757450" lon="6.3640666">
<ele>54.9000000</ele>
<time>2007-09-12T23:59:39Z</time>
</trkpt>
<trkpt lat="51.2749330" lon="6.3647320">
<ele>55.9000000</ele>
<time>2007-09-12T23:59:55Z</time>
</trkpt>
<trkpt lat="51.2742900" lon="6.3651395">
<ele>54.9000000</ele>
<time>2007-09-13T00:00:07Z</time>
</trkpt>
<trkpt lat="51.2737100" lon="6.3654613">
<ele>54.0000000</ele>
<time>2007-09-13T00:00:17Z</time>
</trkpt>
<trkpt lat="51.2730200" lon="6.3658260">
<ele>54.9000000</ele>
<time>2007-09-13T00:00:30Z</time>
</trkpt>
<trkpt lat="51.2724000" lon="6.3661910">
<ele>56.9000000</ele>
<time>2007-09-13T00:00:42Z</time>
</trkpt>
<trkpt lat="51.2718620" lon="6.3667060">
<ele>59.7000000</ele>
<time>2007-09-13T00:00:52Z</time>
</trkpt>
<trkpt lat="51.2715000" lon="6.3673496">
<ele>62.1000000</ele>
<time>2007-09-13T00:01:02Z</time>
</trkpt>
<trkpt lat="51.2711100" lon="6.3676070">
<ele>61.2000000</ele>
<time>2007-09-13T00:01:09Z</time>
</trkpt>
<trkpt lat="51.2709200" lon="6.3678430">
<ele>60.7000000</ele>
<time>2007-09-13T00:01:13Z</time>
</trkpt>
<trkpt lat="51.2709600" lon="6.3682080">
<ele>61.2000000</ele>
<time>2007-09-13T00:01:17Z</time>
</trkpt>
<trkpt lat="51.2711100" lon="6.3691950">
<ele>60.2000000</ele>
<time>2007-09-13T00:01:29Z</time>
</trkpt>
<trkpt lat="51.2714540" lon="6.3704610">
<ele>53.0000000</ele>
<time>2007-09-13T00:01:44Z</time>
</trkpt>
<trkpt lat="51.2715200" lon="6.3706756">
<ele>52.0000000</ele>
<time>2007-09-13T00:01:46Z</time>
</trkpt>
<trkpt lat="51.2714672" lon="6.3704570">
<ele>0.0000000</ele>
<time>2007-09-13T00:01:49Z</time>
</trkpt>
<trkpt lat="51.2716019" lon="6.3711032">
<ele>0.0000000</ele>
<time>2007-09-13T00:01:56Z</time>
</trkpt>
<trkpt lat="51.2730392" lon="6.3764878">
<ele>0.0000000</ele>
<time>2007-09-13T00:03:00Z</time>
</trkpt>
<trkpt lat="51.2743867" lon="6.3845288">
<ele>0.0000000</ele>
<time>2007-09-13T00:04:31Z</time>
</trkpt>
<trkpt lat="51.2743867" lon="6.3852467">
<ele>0.0000000</ele>
<time>2007-09-13T00:04:38Z</time>
</trkpt>
<trkpt lat="51.2745214" lon="6.3863237">
<ele>0.0000000</ele>
<time>2007-09-13T00:04:50Z</time>
</trkpt>
<trkpt lat="51.2764528" lon="6.3886211">
<ele>0.0000000</ele>
<time>2007-09-13T00:05:32Z</time>
</trkpt>
<trkpt lat="51.2774859" lon="6.3896980">
<ele>0.0000000</ele>
<time>2007-09-13T00:05:54Z</time>
</trkpt>
<trkpt lat="51.2781596" lon="6.3899134">
<ele>0.0000000</ele>
<time>2007-09-13T00:06:06Z</time>
</trkpt>
<trkpt lat="51.2782943" lon="6.3906314">
<ele>0.0000000</ele>
<time>2007-09-13T00:06:14Z</time>
</trkpt>
<trkpt lat="51.2788782" lon="6.3915647">
<ele>0.0000000</ele>
<time>2007-09-13T00:06:28Z</time>
</trkpt>
<trkpt lat="51.2819774" lon="6.3956570">
<ele>0.0000000</ele>
<time>2007-09-13T00:07:38Z</time>
</trkpt>
<trkpt lat="51.2815732" lon="6.3963031">
<ele>0.0000000</ele>
<time>2007-09-13T00:07:48Z</time>
</trkpt>
<trkpt lat="51.2815900" lon="6.3963720">
<ele>0.0000000</ele>
<time>2007-09-13T00:07:49Z</time>
</trkpt>
<trkpt lat="51.2790300" lon="6.4015850">
<ele>0.0000000</ele>
<time>2007-09-13T00:09:01Z</time>
</trkpt>
<trkpt lat="51.2764960" lon="6.4066250">
<ele>0.0000000</ele>
<time>2007-09-13T00:10:11Z</time>
</trkpt>
<trkpt lat="51.2732080" lon="6.4134320">
<ele>0.0000000</ele>
<time>2007-09-13T00:11:45Z</time>
</trkpt>
<trkpt lat="51.2701900" lon="6.4190320">
<ele>0.0000000</ele>
<time>2007-09-13T00:13:06Z</time>
</trkpt>
<trkpt lat="51.2670510" lon="6.4248910">
<ele>0.0000000</ele>
<time>2007-09-13T00:14:30Z</time>
</trkpt>
<trkpt lat="51.2648950" lon="6.4289390">
<ele>0.0000000</ele>
<time>2007-09-13T00:15:27Z</time>
</trkpt>
<trkpt lat="51.2620110" lon="6.4343650">
<ele>0.0000000</ele>
<time>2007-09-13T00:16:45Z</time>
</trkpt>
<trkpt lat="51.2550580" lon="6.4461230">
<ele>0.0000000</ele>
<time>2007-09-13T00:19:41Z</time>
</trkpt>
<trkpt lat="51.2522020" lon="6.4509020">
<ele>0.0000000</ele>
<time>2007-09-13T00:20:53Z</time>
</trkpt>
<trkpt lat="51.2457070" lon="6.4619240">
<ele>0.0000000</ele>
<time>2007-09-13T00:23:38Z</time>
</trkpt>
<trkpt lat="51.2457394" lon="6.4617831">
<ele>0.0000000</ele>
<time>2007-09-13T00:23:40Z</time>
</trkpt>
<trkpt lat="51.2411131" lon="6.4691737">
<ele>0.0000000</ele>
<time>2007-09-13T00:25:34Z</time>
</trkpt>
<trkpt lat="51.2398554" lon="6.4712545">
<ele>0.0000000</ele>
<time>2007-09-13T00:26:05Z</time>
</trkpt>
<trkpt lat="51.2386427" lon="6.4737658">
<ele>0.0000000</ele>
<time>2007-09-13T00:26:40Z</time>
</trkpt>
<trkpt lat="51.2371605" lon="6.4771382">
<ele>0.0000000</ele>
<time>2007-09-13T00:27:25Z</time>
</trkpt>
<trkpt lat="51.2361723" lon="6.4779993">
<ele>0.0000000</ele>
<time>2007-09-13T00:27:44Z</time>
</trkpt>
<trkpt lat="51.2372953" lon="6.4799366">
<ele>0.0000000</ele>
<time>2007-09-13T00:28:13Z</time>
</trkpt>
<trkpt lat="51.2383733" lon="6.4828067">
<ele>0.0000000</ele>
<time>2007-09-13T00:28:49Z</time>
</trkpt>
<trkpt lat="51.2387326" lon="6.4842418">
<ele>0.0000000</ele>
<time>2007-09-13T00:29:06Z</time>
</trkpt>
<trkpt lat="51.2372054" lon="6.4851745">
<ele>0.0000000</ele>
<time>2007-09-13T00:29:35Z</time>
</trkpt>
<trkpt lat="51.2334325" lon="6.4872554">
<ele>0.0000000</ele>
<time>2007-09-13T00:30:44Z</time>
</trkpt>
<trkpt lat="51.2355885" lon="6.4872554">
<ele>0.0000000</ele>
<time>2007-09-13T00:31:22Z</time>
</trkpt>
<trkpt lat="51.2359005" lon="6.4872673">
<ele>0.0000000</ele>
<time>2007-09-13T00:31:27Z</time>
</trkpt>
<trkpt lat="51.2372031" lon="6.4868369">
<ele>0.0000000</ele>
<time>2007-09-13T00:31:50Z</time>
</trkpt>
<trkpt lat="51.2377421" lon="6.4871956">
<ele>0.0000000</ele>
<time>2007-09-13T00:32:00Z</time>
</trkpt>
<trkpt lat="51.2379217" lon="6.4877693">
<ele>0.0000000</ele>
<time>2007-09-13T00:32:07Z</time>
</trkpt>
<trkpt lat="51.2367989" lon="6.4973805">
<ele>0.0000000</ele>
<time>2007-09-13T00:33:54Z</time>
</trkpt>
<trkpt lat="51.2359454" lon="6.5044813">
<ele>0.0000000</ele>
<time>2007-09-13T00:35:13Z</time>
</trkpt>
<trkpt lat="51.2344183" lon="6.5043379">
<ele>0.0000000</ele>
<time>2007-09-13T00:35:39Z</time>
</trkpt>
<trkpt lat="51.2316785" lon="6.5279356">
<ele>0.0000000</ele>
<time>2007-09-13T00:40:01Z</time>
</trkpt>
<trkpt lat="51.2313641" lon="6.5315218">
<ele>0.0000000</ele>
<time>2007-09-13T00:40:40Z</time>
</trkpt>
<trkpt lat="51.2316785" lon="6.5318087">
<ele>0.0000000</ele>
<time>2007-09-13T00:40:47Z</time>
</trkpt>
<trkpt lat="51.2315050" lon="6.5323150">
<ele>0.0000000</ele>
<time>2007-09-13T00:40:53Z</time>
</trkpt>
<trkpt lat="51.2295120" lon="6.5498420">
<ele>0.0000000</ele>
<time>2007-09-13T00:44:07Z</time>
</trkpt>
<trkpt lat="51.2289730" lon="6.5543600">
<ele>0.0000000</ele>
<time>2007-09-13T00:44:57Z</time>
</trkpt>
<trkpt lat="51.2287300" lon="6.5577170">
<ele>0.0000000</ele>
<time>2007-09-13T00:45:34Z</time>
</trkpt>
<trkpt lat="51.2286490" lon="6.5620200">
<ele>0.0000000</ele>
<time>2007-09-13T00:46:21Z</time>
</trkpt>
<trkpt lat="51.2275710" lon="6.5618910">
<ele>0.0000000</ele>
<time>2007-09-13T00:46:40Z</time>
</trkpt>
<trkpt lat="51.2264120" lon="6.5615900">
<ele>0.0000000</ele>
<time>2007-09-13T00:47:00Z</time>
</trkpt>
<trkpt lat="51.2249300" lon="6.5613320">
<ele>0.0000000</ele>
<time>2007-09-13T00:47:26Z</time>
</trkpt>
<trkpt lat="51.2237710" lon="6.5614180">
<ele>0.0000000</ele>
<time>2007-09-13T00:47:46Z</time>
</trkpt>
<trkpt lat="51.2225050" lon="6.5619340">
<ele>0.0000000</ele>
<time>2007-09-13T00:48:09Z</time>
</trkpt>
<trkpt lat="51.2215350" lon="6.5630530">
<ele>0.0000000</ele>
<time>2007-09-13T00:48:30Z</time>
</trkpt>
<trkpt lat="51.2208880" lon="6.5644730">
<ele>0.0000000</ele>
<time>2007-09-13T00:48:49Z</time>
</trkpt>
<trkpt lat="51.2204570" lon="6.5659790">
<ele>0.0000000</ele>
<time>2007-09-13T00:49:07Z</time>
</trkpt>
<trkpt lat="51.2201060" lon="6.5675710">
<ele>0.0000000</ele>
<time>2007-09-13T00:49:26Z</time>
</trkpt>
<trkpt lat="51.2197290" lon="6.5694650">
<ele>0.0000000</ele>
<time>2007-09-13T00:49:47Z</time>
</trkpt>
<trkpt lat="51.2195000" lon="6.5699810">
<ele>0.0000000</ele>
<time>2007-09-13T00:49:54Z</time>
</trkpt>
<trkpt lat="51.2195810" lon="6.5702390">
<ele>0.0000000</ele>
<time>2007-09-13T00:49:57Z</time>
</trkpt>
<trkpt lat="51.2188540" lon="6.5747140">
<ele>0.0000000</ele>
<time>2007-09-13T00:50:48Z</time>
</trkpt>
<trkpt lat="51.2186920" lon="6.5763920">
<ele>0.0000000</ele>
<time>2007-09-13T00:51:06Z</time>
</trkpt>
<trkpt lat="51.2179370" lon="6.5832770">
<ele>0.0000000</ele>
<time>2007-09-13T00:52:22Z</time>
</trkpt>
<trkpt lat="51.2195000" lon="6.5837070">
<ele>0.0000000</ele>
<time>2007-09-13T00:52:50Z</time>
</trkpt>
<trkpt lat="51.2213600" lon="6.5850410">
<ele>0.0000000</ele>
<time>2007-09-13T00:53:25Z</time>
</trkpt>
<trkpt lat="51.2214410" lon="6.5847390">
<ele>0.0000000</ele>
<time>2007-09-13T00:53:29Z</time>
</trkpt>
<trkpt lat="51.2217100" lon="6.5846100">
<ele>0.0000000</ele>
<time>2007-09-13T00:53:34Z</time>
</trkpt>
<trkpt lat="51.2220610" lon="6.5847390">
<ele>0.0000000</ele>
<time>2007-09-13T00:53:40Z</time>
</trkpt>
<trkpt lat="51.2228150" lon="6.5850840">
<ele>0.0000000</ele>
<time>2007-09-13T00:53:54Z</time>
</trkpt>
<trkpt lat="51.2226540" lon="6.5860300">
<ele>0.0000000</ele>
<time>2007-09-13T00:54:04Z</time>
</trkpt>
<trkpt lat="51.2228960" lon="6.5860300">
<ele>0.0000000</ele>
<time>2007-09-13T00:54:09Z</time>
</trkpt>
</trkseg>
</trk>
</gpx>
